<?xml version='1.0' encoding='UTF-8'?><gpx version="1.1" creator="JPX - https://github.com/jenetics/jpx" xmlns="http://www.topografix.com/GPX/1/1"><trk><trkseg><trkpt lat="41.0004272" lon="17.2086215"><ele>9.000000000000002</ele><time>2026-04-19T08:16:45.074Z</time></trkpt><trkpt lat="41.0003686" lon="17.208561"><ele>9.0</ele><time>2026-04-19T08:16:52.074Z</time></trkpt><trkpt lat="41.0003029" lon="17.2085719"><ele>9.0</ele><time>2026-04-19T08:17:02.074Z</time></trkpt><trkpt lat="41.0002709" lon="17.2086438"><ele>9.0</ele><time>2026-04-19T08:17:13.074Z</time></trkpt><trkpt lat="41.0002405" lon="17.2087273"><ele>9.0</ele><time>2026-04-19T08:17:21.074Z</time></trkpt><trkpt lat="41.0002007" lon="17.2088003"><ele>9.000000000000002</ele><time>2026-04-19T08:17:27.075Z</time></trkpt><trkpt lat="41.000167" lon="17.208871"><ele>9.0</ele><time>2026-04-19T08:17:33.011Z</time></trkpt><trkpt lat="41.0001395" lon="17.2089557"><ele>9.000000000000002</ele><time>2026-04-19T08:17:39.987Z</time></trkpt><trkpt lat="41.0001191" lon="17.2090475"><ele>9.0</ele><time>2026-04-19T08:17:46.074Z</time></trkpt><trkpt lat="41.0000888" lon="17.2091212"><ele>9.0</ele><time>2026-04-19T08:17:51.074Z</time></trkpt><trkpt lat="41.0000618" lon="17.2092053"><ele>9.0</ele><time>2026-04-19T08:17:57.074Z</time></trkpt><trkpt lat="40.9999963" lon="17.2092169"><ele>9.0</ele><time>2026-04-19T08:18:23.074Z</time></trkpt><trkpt lat="41.0000072" lon="17.2093091"><ele>9.000000000000002</ele><time>2026-04-19T08:18:56.104Z</time></trkpt><trkpt lat="41.0000066" lon="17.209394"><ele>9.0</ele><time>2026-04-19T08:19:03.075Z</time></trkpt><trkpt lat="41.000038" lon="17.2094709"><ele>9.000000000000002</ele><time>2026-04-19T08:19:17.075Z</time></trkpt><trkpt lat="41.0" lon="17.209554"><ele>9.0</ele><time>2026-04-19T08:19:22.075Z</time></trkpt><trkpt lat="40.9999794" lon="17.2096333"><ele>9.0</ele><time>2026-04-19T08:19:29.074Z</time></trkpt><trkpt lat="40.9999687" lon="17.2097161"><ele>9.0</ele><time>2026-04-19T08:20:58.073Z</time></trkpt><trkpt lat="40.9999271" lon="17.209784"><ele>9.0</ele><time>2026-04-19T08:21:17.074Z</time></trkpt><trkpt lat="40.9998979" lon="17.2098611"><ele>9.000000000000002</ele><time>2026-04-19T08:21:25.11Z</time></trkpt><trkpt lat="40.9998607" lon="17.2099296"><ele>9.0</ele><time>2026-04-19T08:21:32.073Z</time></trkpt><trkpt lat="40.9998328" lon="17.2100121"><ele>8.571428571428573</ele><time>2026-04-19T08:21:42.073Z</time></trkpt><trkpt lat="40.9998857" lon="17.2100671"><ele>8.142857142857142</ele><time>2026-04-19T08:21:51.073Z</time></trkpt><trkpt lat="40.9998562" lon="17.210145"><ele>7.714285714285714</ele><time>2026-04-19T08:22:00.073Z</time></trkpt><trkpt lat="40.9998904" lon="17.2102187"><ele>7.2857142857142865</ele><time>2026-04-19T08:22:10.074Z</time></trkpt><trkpt lat="40.9998919" lon="17.2101234"><ele>6.857142857142858</ele><time>2026-04-19T08:22:40.983Z</time></trkpt><trkpt lat="40.999951" lon="17.2100798"><ele>6.428571428571428</ele><time>2026-04-19T08:22:48.045Z</time></trkpt><trkpt lat="40.9999723" lon="17.2101685"><ele>6.0</ele><time>2026-04-19T08:23:02.074Z</time></trkpt><trkpt lat="40.9999359" lon="17.2102388"><ele>5.999999999999999</ele><time>2026-04-19T08:23:20.073Z</time></trkpt><trkpt lat="41.0000014" lon="17.2102338"><ele>6.0</ele><time>2026-04-19T08:23:51.063Z</time></trkpt><trkpt lat="41.0000287" lon="17.2103096"><ele>6.0</ele><time>2026-04-19T08:24:05.074Z</time></trkpt><trkpt lat="40.9999656" lon="17.2103216"><ele>6.0</ele><time>2026-04-19T08:25:11.073Z</time></trkpt><trkpt lat="41.0000119" lon="17.2102551"><ele>6.0</ele><time>2026-04-19T08:26:06.073Z</time></trkpt><trkpt lat="40.9999962" lon="17.2101728"><ele>5.999999999999999</ele><time>2026-04-19T08:26:13.073Z</time></trkpt><trkpt lat="40.9999577" lon="17.2102418"><ele>6.0</ele><time>2026-04-19T08:26:45.073Z</time></trkpt><trkpt lat="40.9999021" lon="17.2101907"><ele>5.999999999999999</ele><time>2026-04-19T08:27:17.074Z</time></trkpt><trkpt lat="40.9998459" lon="17.2101499"><ele>6.0</ele><time>2026-04-19T08:27:31.073Z</time></trkpt><trkpt lat="40.9998082" lon="17.2102206"><ele>6.0</ele><time>2026-04-19T08:27:43.074Z</time></trkpt><trkpt lat="40.9998418" lon="17.2103022"><ele>6.0</ele><time>2026-04-19T08:27:52.074Z</time></trkpt><trkpt lat="40.9998302" lon="17.2103852"><ele>6.0</ele><time>2026-04-19T08:27:59.073Z</time></trkpt><trkpt lat="40.9998126" lon="17.2104751"><ele>5.999999999999999</ele><time>2026-04-19T08:28:06.073Z</time></trkpt><trkpt lat="40.9998006" lon="17.2105659"><ele>6.0</ele><time>2026-04-19T08:28:12.074Z</time></trkpt><trkpt lat="40.9997771" lon="17.2106488"><ele>5.571428571428571</ele><time>2026-04-19T08:28:18.073Z</time></trkpt><trkpt lat="40.9997526" lon="17.2107325"><ele>5.142857142857142</ele><time>2026-04-19T08:28:26.073Z</time></trkpt><trkpt lat="40.9997419" lon="17.2108234"><ele>4.7142857142857135</ele><time>2026-04-19T08:28:33.073Z</time></trkpt><trkpt lat="40.9997396" lon="17.210907"><ele>4.285714285714286</ele><time>2026-04-19T08:28:39.073Z</time></trkpt><trkpt lat="40.9997094" lon="17.2109952"><ele>3.8571428571428568</ele><time>2026-04-19T08:28:46.073Z</time></trkpt><trkpt lat="40.9996603" lon="17.2110506"><ele>3.4285714285714284</ele><time>2026-04-19T08:28:52.073Z</time></trkpt><trkpt lat="40.9996309" lon="17.2111385"><ele>3.0</ele><time>2026-04-19T08:28:59.05Z</time></trkpt><trkpt lat="40.9995898" lon="17.2112173"><ele>2.9999999999999996</ele><time>2026-04-19T08:29:06.074Z</time></trkpt><trkpt lat="40.9995651" lon="17.2112947"><ele>3.0</ele><time>2026-04-19T08:29:12.073Z</time></trkpt><trkpt lat="40.9995522" lon="17.2113861"><ele>3.0</ele><time>2026-04-19T08:29:20.072Z</time></trkpt><trkpt lat="40.9995534" lon="17.2114808"><ele>3.0</ele><time>2026-04-19T08:29:27.074Z</time></trkpt><trkpt lat="40.9995548" lon="17.2115644"><ele>3.0</ele><time>2026-04-19T08:29:34.072Z</time></trkpt><trkpt lat="40.9995662" lon="17.2116566"><ele>2.9999999999999996</ele><time>2026-04-19T08:29:40.91Z</time></trkpt><trkpt lat="40.9995733" lon="17.2117465"><ele>3.0</ele><time>2026-04-19T08:29:48.073Z</time></trkpt><trkpt lat="40.9996028" lon="17.2118284"><ele>2.571428571428571</ele><time>2026-04-19T08:29:54.073Z</time></trkpt><trkpt lat="40.9996294" lon="17.211905"><ele>2.142857142857143</ele><time>2026-04-19T08:30:00.073Z</time></trkpt><trkpt lat="40.9996596" lon="17.2119979"><ele>1.7142857142857142</ele><time>2026-04-19T08:30:07.071Z</time></trkpt><trkpt lat="40.9996964" lon="17.2120667"><ele>1.2857142857142856</ele><time>2026-04-19T08:30:20.074Z</time></trkpt><trkpt lat="40.9997039" lon="17.2121516"><ele>0.8571428571428571</ele><time>2026-04-19T08:30:26.247Z</time></trkpt><trkpt lat="40.9997374" lon="17.2122224"><ele>0.42857142857142855</ele><time>2026-04-19T08:30:32.666Z</time></trkpt><trkpt lat="40.9997551" lon="17.2123074"><ele>0.0</ele><time>2026-04-19T08:30:38.188Z</time></trkpt><trkpt lat="40.9997451" lon="17.2124001"><ele>0.0</ele><time>2026-04-19T08:30:43.933Z</time></trkpt><trkpt lat="40.999723" lon="17.2124877"><ele>0.0</ele><time>2026-04-19T08:30:49.066Z</time></trkpt><trkpt lat="40.9996818" lon="17.2125566"><ele>0.0</ele><time>2026-04-19T08:30:54.209Z</time></trkpt><trkpt lat="40.9995981" lon="17.2125801"><ele>0.0</ele><time>2026-04-19T08:31:09.47Z</time></trkpt><trkpt lat="40.9995661" lon="17.2126533"><ele>0.0</ele><time>2026-04-19T08:31:14.072Z</time></trkpt><trkpt lat="40.9995512" lon="17.2127397"><ele>0.0</ele><time>2026-04-19T08:31:20.094Z</time></trkpt><trkpt lat="40.9995588" lon="17.2128323"><ele>0.0</ele><time>2026-04-19T08:31:27.072Z</time></trkpt><trkpt lat="40.9995771" lon="17.2129122"><ele>0.0</ele><time>2026-04-19T08:31:34.072Z</time></trkpt><trkpt lat="40.9995868" lon="17.2130008"><ele>0.0</ele><time>2026-04-19T08:31:39.266Z</time></trkpt><trkpt lat="40.9995403" lon="17.2130932"><ele>0.0</ele><time>2026-04-19T08:31:57.073Z</time></trkpt><trkpt lat="40.9995578" lon="17.2131834"><ele>0.0</ele><time>2026-04-19T08:32:04.172Z</time></trkpt><trkpt lat="40.999575" lon="17.2132753"><ele>0.0</ele><time>2026-04-19T08:32:11.474Z</time></trkpt><trkpt lat="40.9995445" lon="17.2133517"><ele>0.0</ele><time>2026-04-19T08:32:39.072Z</time></trkpt><trkpt lat="40.9994935" lon="17.213428"><ele>0.0</ele><time>2026-04-19T08:32:46.609Z</time></trkpt><trkpt lat="40.9994626" lon="17.2135197"><ele>0.42857142857142855</ele><time>2026-04-19T08:32:52.069Z</time></trkpt><trkpt lat="40.9994316" lon="17.2136069"><ele>0.8571428571428571</ele><time>2026-04-19T08:32:56.993Z</time></trkpt><trkpt lat="40.9993944" lon="17.213676"><ele>1.2857142857142856</ele><time>2026-04-19T08:33:03.076Z</time></trkpt><trkpt lat="40.9993428" lon="17.2137283"><ele>1.7142857142857142</ele><time>2026-04-19T08:33:09.173Z</time></trkpt><trkpt lat="40.9992804" lon="17.2137772"><ele>2.142857142857143</ele><time>2026-04-19T08:33:16.072Z</time></trkpt><trkpt lat="40.9992314" lon="17.2138378"><ele>2.571428571428571</ele><time>2026-04-19T08:33:22.175Z</time></trkpt><trkpt lat="40.9992068" lon="17.2139194"><ele>3.0</ele><time>2026-04-19T08:33:29.174Z</time></trkpt><trkpt lat="40.9991582" lon="17.2139774"><ele>2.8571428571428568</ele><time>2026-04-19T08:33:35.072Z</time></trkpt><trkpt lat="40.9990944" lon="17.2140204"><ele>2.7142857142857144</ele><time>2026-04-19T08:33:42.013Z</time></trkpt><trkpt lat="40.9990489" lon="17.2140908"><ele>2.571428571428571</ele><time>2026-04-19T08:33:50.172Z</time></trkpt><trkpt lat="40.9989885" lon="17.2141188"><ele>2.4285714285714284</ele><time>2026-04-19T08:33:57.169Z</time></trkpt><trkpt lat="40.99892" lon="17.2141413"><ele>2.2857142857142856</ele><time>2026-04-19T08:34:04.177Z</time></trkpt><trkpt lat="40.9988568" lon="17.214133"><ele>2.142857142857143</ele><time>2026-04-19T08:34:10.952Z</time></trkpt><trkpt lat="40.9987969" lon="17.2140902"><ele>2.0</ele><time>2026-04-19T08:34:15.55Z</time></trkpt><trkpt lat="40.9987639" lon="17.2140144"><ele>2.7142857142857144</ele><time>2026-04-19T08:34:19.927Z</time></trkpt><trkpt lat="40.9987349" lon="17.2139369"><ele>3.4285714285714284</ele><time>2026-04-19T08:34:26.072Z</time></trkpt><trkpt lat="40.9987031" lon="17.2138627"><ele>4.142857142857142</ele><time>2026-04-19T08:34:32.071Z</time></trkpt><trkpt lat="40.998641" lon="17.2138214"><ele>4.857142857142857</ele><time>2026-04-19T08:34:37.072Z</time></trkpt><trkpt lat="40.9985982" lon="17.213744"><ele>5.571428571428571</ele><time>2026-04-19T08:34:41.513Z</time></trkpt><trkpt lat="40.9985597" lon="17.2136771"><ele>6.285714285714286</ele><time>2026-04-19T08:34:47.072Z</time></trkpt><trkpt lat="40.9985061" lon="17.2137366"><ele>7.0</ele><time>2026-04-19T08:34:59.072Z</time></trkpt><trkpt lat="40.9985246" lon="17.2138335"><ele>7.0</ele><time>2026-04-19T08:35:14.073Z</time></trkpt><trkpt lat="40.9985051" lon="17.2139277"><ele>7.0</ele><time>2026-04-19T08:35:19.072Z</time></trkpt><trkpt lat="40.9985213" lon="17.2140123"><ele>7.0</ele><time>2026-04-19T08:35:25.073Z</time></trkpt><trkpt lat="40.9985753" lon="17.2140763"><ele>7.0</ele><time>2026-04-19T08:35:30.072Z</time></trkpt><trkpt lat="40.9986083" lon="17.2141576"><ele>7.0</ele><time>2026-04-19T08:35:36.072Z</time></trkpt><trkpt lat="40.9986188" lon="17.214251"><ele>7.0</ele><time>2026-04-19T08:36:08.072Z</time></trkpt><trkpt lat="40.9986258" lon="17.2143388"><ele>7.0</ele><time>2026-04-19T08:36:15.072Z</time></trkpt><trkpt lat="40.9986489" lon="17.21442"><ele>7.0</ele><time>2026-04-19T08:36:52.097Z</time></trkpt><trkpt lat="40.9986493" lon="17.2145063"><ele>7.0</ele><time>2026-04-19T08:37:00.282Z</time></trkpt><trkpt lat="40.9985981" lon="17.2145662"><ele>7.0</ele><time>2026-04-19T08:37:30.214Z</time></trkpt><trkpt lat="40.9985368" lon="17.2145444"><ele>7.0</ele><time>2026-04-19T08:37:55.203Z</time></trkpt><trkpt lat="40.998497" lon="17.2144655"><ele>7.0</ele><time>2026-04-19T08:38:38.072Z</time></trkpt><trkpt lat="40.9984284" lon="17.2144638"><ele>7.0</ele><time>2026-04-19T08:40:39.072Z</time></trkpt><trkpt lat="40.998368" lon="17.214418"><ele>7.0</ele><time>2026-04-19T08:40:46.761Z</time></trkpt><trkpt lat="40.998311" lon="17.2144821"><ele>7.0</ele><time>2026-04-19T08:40:54.072Z</time></trkpt><trkpt lat="40.9982743" lon="17.2145572"><ele>7.0</ele><time>2026-04-19T08:41:01.676Z</time></trkpt><trkpt lat="40.9982278" lon="17.2146421"><ele>7.0</ele><time>2026-04-19T08:41:09.072Z</time></trkpt><trkpt lat="40.9982493" lon="17.2147267"><ele>7.0</ele><time>2026-04-19T08:41:15.195Z</time></trkpt><trkpt lat="40.9982155" lon="17.2148031"><ele>7.0</ele><time>2026-04-19T08:41:23.404Z</time></trkpt><trkpt lat="40.9981528" lon="17.2148216"><ele>7.0</ele><time>2026-04-19T08:41:31.071Z</time></trkpt><trkpt lat="40.9980956" lon="17.2148915"><ele>7.0</ele><time>2026-04-19T08:41:36.071Z</time></trkpt><trkpt lat="40.9980657" lon="17.2149785"><ele>7.285714285714286</ele><time>2026-04-19T08:41:42.071Z</time></trkpt><trkpt lat="40.9980673" lon="17.2150718"><ele>7.571428571428571</ele><time>2026-04-19T08:41:47.027Z</time></trkpt><trkpt lat="40.9981149" lon="17.215134"><ele>7.857142857142858</ele><time>2026-04-19T08:41:52.071Z</time></trkpt><trkpt lat="40.9981468" lon="17.2152116"><ele>8.142857142857142</ele><time>2026-04-19T08:41:57.987Z</time></trkpt><trkpt lat="40.9981735" lon="17.2152891"><ele>8.428571428571429</ele><time>2026-04-19T08:42:03.07Z</time></trkpt><trkpt lat="40.9982126" lon="17.2153655"><ele>8.714285714285715</ele><time>2026-04-19T08:42:11.071Z</time></trkpt><trkpt lat="40.9981947" lon="17.2154474"><ele>9.0</ele><time>2026-04-19T08:42:17.071Z</time></trkpt><trkpt lat="40.9981622" lon="17.2155293"><ele>9.000000000000002</ele><time>2026-04-19T08:42:23.996Z</time></trkpt><trkpt lat="40.9981449" lon="17.2156097"><ele>9.0</ele><time>2026-04-19T08:42:30.012Z</time></trkpt><trkpt lat="40.9981721" lon="17.2156935"><ele>9.0</ele><time>2026-04-19T08:42:37.071Z</time></trkpt><trkpt lat="40.9982134" lon="17.2157654"><ele>9.0</ele><time>2026-04-19T08:42:43.071Z</time></trkpt><trkpt lat="40.9982312" lon="17.2158492"><ele>9.0</ele><time>2026-04-19T08:42:49.171Z</time></trkpt><trkpt lat="40.9981722" lon="17.2159127"><ele>9.000000000000002</ele><time>2026-04-19T08:43:47.07Z</time></trkpt><trkpt lat="40.9981123" lon="17.2159486"><ele>9.0</ele><time>2026-04-19T08:43:54.071Z</time></trkpt><trkpt lat="40.9981163" lon="17.216036"><ele>8.857142857142858</ele><time>2026-04-19T08:43:58.147Z</time></trkpt><trkpt lat="40.9980946" lon="17.2161157"><ele>8.714285714285715</ele><time>2026-04-19T08:44:05.071Z</time></trkpt><trkpt lat="40.9980431" lon="17.2162047"><ele>8.571428571428571</ele><time>2026-04-19T08:44:17.071Z</time></trkpt><trkpt lat="40.9979707" lon="17.2162047"><ele>8.428571428571429</ele><time>2026-04-19T08:44:27.104Z</time></trkpt><trkpt lat="40.9979069" lon="17.2161975"><ele>8.285714285714285</ele><time>2026-04-19T08:44:29.675Z</time></trkpt><trkpt lat="40.9978375" lon="17.2162509"><ele>8.142857142857142</ele><time>2026-04-19T08:44:35.729Z</time></trkpt><trkpt lat="40.9977973" lon="17.2163258"><ele>8.0</ele><time>2026-04-19T08:44:41.147Z</time></trkpt><trkpt lat="40.9977495" lon="17.2163927"><ele>8.0</ele><time>2026-04-19T08:44:47.071Z</time></trkpt><trkpt lat="40.9976974" lon="17.2164417"><ele>7.999999999999999</ele><time>2026-04-19T08:44:53.422Z</time></trkpt><trkpt lat="40.997638" lon="17.2164992"><ele>8.0</ele><time>2026-04-19T08:45:00.373Z</time></trkpt><trkpt lat="40.9975889" lon="17.2165577"><ele>8.0</ele><time>2026-04-19T08:45:08.535Z</time></trkpt><trkpt lat="40.9975396" lon="17.216614"><ele>7.999999999999999</ele><time>2026-04-19T08:45:12.176Z</time></trkpt><trkpt lat="40.9974901" lon="17.2166912"><ele>8.0</ele><time>2026-04-19T08:45:59.071Z</time></trkpt><trkpt lat="40.9974206" lon="17.2167071"><ele>8.0</ele><time>2026-04-19T08:46:06.184Z</time></trkpt><trkpt lat="40.9973451" lon="17.2167341"><ele>8.142857142857142</ele><time>2026-04-19T08:46:12.165Z</time></trkpt><trkpt lat="40.997312" lon="17.2168312"><ele>8.285714285714285</ele><time>2026-04-19T08:46:17.813Z</time></trkpt><trkpt lat="40.9973203" lon="17.2169458"><ele>8.428571428571429</ele><time>2026-04-19T08:46:20.17Z</time></trkpt><trkpt lat="40.9972688" lon="17.2169961"><ele>8.571428571428571</ele><time>2026-04-19T08:46:33.071Z</time></trkpt><trkpt lat="40.9972228" lon="17.2170626"><ele>8.714285714285715</ele><time>2026-04-19T08:46:43.17Z</time></trkpt><trkpt lat="40.9972166" lon="17.2171589"><ele>8.857142857142858</ele><time>2026-04-19T08:46:51.154Z</time></trkpt><trkpt lat="40.9971901" lon="17.2172404"><ele>9.0</ele><time>2026-04-19T08:47:18.071Z</time></trkpt><trkpt lat="40.9971942" lon="17.21733"><ele>9.0</ele><time>2026-04-19T08:47:30.071Z</time></trkpt><trkpt lat="40.9972374" lon="17.2172624"><ele>9.0</ele><time>2026-04-19T08:48:00.072Z</time></trkpt><trkpt lat="40.997304" lon="17.2172681"><ele>9.0</ele><time>2026-04-19T08:48:08.071Z</time></trkpt><trkpt lat="40.9973562" lon="17.2172171"><ele>9.0</ele><time>2026-04-19T08:48:13.073Z</time></trkpt><trkpt lat="40.9971297" lon="17.2173147"><ele>9.0</ele><time>2026-04-19T08:48:17.148Z</time></trkpt><trkpt lat="40.996849" lon="17.2174965"><ele>9.000000000000002</ele><time>2026-04-19T08:48:18.186Z</time></trkpt><trkpt lat="40.9967743" lon="17.2175012"><ele>9.0</ele><time>2026-04-19T08:48:22.697Z</time></trkpt><trkpt lat="40.9967323" lon="17.2174218"><ele>9.0</ele><time>2026-04-19T08:48:29.077Z</time></trkpt><trkpt lat="40.9966821" lon="17.2173634"><ele>9.0</ele><time>2026-04-19T08:48:37.072Z</time></trkpt><trkpt lat="40.996647" lon="17.2172934"><ele>9.0</ele><time>2026-04-19T08:48:43.07Z</time></trkpt><trkpt lat="40.9966149" lon="17.2172151"><ele>9.000000000000002</ele><time>2026-04-19T08:48:48.216Z</time></trkpt><trkpt lat="40.9965749" lon="17.2171454"><ele>9.0</ele><time>2026-04-19T08:49:09.071Z</time></trkpt><trkpt lat="40.9965203" lon="17.2170795"><ele>11.42857142857143</ele><time>2026-04-19T08:49:17.071Z</time></trkpt><trkpt lat="40.9964764" lon="17.2170076"><ele>13.857142857142858</ele><time>2026-04-19T08:49:21.981Z</time></trkpt><trkpt lat="40.9964075" lon="17.2169952"><ele>16.285714285714285</ele><time>2026-04-19T08:49:36.071Z</time></trkpt><trkpt lat="40.9963481" lon="17.2170524"><ele>18.714285714285715</ele><time>2026-04-19T08:49:42.071Z</time></trkpt><trkpt lat="40.9962904" lon="17.2171085"><ele>21.142857142857146</ele><time>2026-04-19T08:49:49.147Z</time></trkpt><trkpt lat="40.9962209" lon="17.2171355"><ele>23.57142857142857</ele><time>2026-04-19T08:49:55.169Z</time></trkpt><trkpt lat="40.9961588" lon="17.2171704"><ele>26.0</ele><time>2026-04-19T08:50:02.166Z</time></trkpt><trkpt lat="40.9960915" lon="17.2172238"><ele>26.0</ele><time>2026-04-19T08:50:10.147Z</time></trkpt><trkpt lat="40.9960386" lon="17.2172721"><ele>26.0</ele><time>2026-04-19T08:50:16.071Z</time></trkpt><trkpt lat="40.9959782" lon="17.2173298"><ele>26.0</ele><time>2026-04-19T08:50:21.172Z</time></trkpt><trkpt lat="40.9959049" lon="17.2173185"><ele>26.0</ele><time>2026-04-19T08:50:43.071Z</time></trkpt><trkpt lat="40.9958401" lon="17.2173399"><ele>26.0</ele><time>2026-04-19T08:50:50.072Z</time></trkpt><trkpt lat="40.9957754" lon="17.2173382"><ele>26.0</ele><time>2026-04-19T08:50:57.071Z</time></trkpt><trkpt lat="40.9957335" lon="17.2174021"><ele>26.0</ele><time>2026-04-19T08:51:01.072Z</time></trkpt><trkpt lat="40.9957098" lon="17.2174877"><ele>25.57142857142857</ele><time>2026-04-19T08:51:04.07Z</time></trkpt><trkpt lat="40.9956801" lon="17.2175625"><ele>25.142857142857146</ele><time>2026-04-19T08:51:09.071Z</time></trkpt><trkpt lat="40.9956775" lon="17.2176496"><ele>24.714285714285715</ele><time>2026-04-19T08:51:12.071Z</time></trkpt><trkpt lat="40.995661" lon="17.2177317"><ele>24.285714285714285</ele><time>2026-04-19T08:51:15.072Z</time></trkpt><trkpt lat="40.9956347" lon="17.217808"><ele>23.857142857142854</ele><time>2026-04-19T08:51:20.102Z</time></trkpt><trkpt lat="40.9956141" lon="17.2178989"><ele>23.42857142857143</ele><time>2026-04-19T08:51:27.175Z</time></trkpt><trkpt lat="40.9955726" lon="17.2179807"><ele>23.0</ele><time>2026-04-19T08:51:35.07Z</time></trkpt><trkpt lat="40.9955582" lon="17.2180684"><ele>23.28571428571429</ele><time>2026-04-19T08:51:41.147Z</time></trkpt><trkpt lat="40.9955283" lon="17.2181595"><ele>23.57142857142857</ele><time>2026-04-19T08:51:48.07Z</time></trkpt><trkpt lat="40.9955036" lon="17.2182507"><ele>23.857142857142858</ele><time>2026-04-19T08:51:55.071Z</time></trkpt><trkpt lat="40.9955082" lon="17.2183453"><ele>24.142857142857146</ele><time>2026-04-19T08:52:02.05Z</time></trkpt><trkpt lat="40.9955771" lon="17.2183261"><ele>24.42857142857143</ele><time>2026-04-19T08:52:13.774Z</time></trkpt><trkpt lat="40.9955943" lon="17.2184093"><ele>24.714285714285715</ele><time>2026-04-19T08:52:22.071Z</time></trkpt><trkpt lat="40.9956549" lon="17.2184649"><ele>25.0</ele><time>2026-04-19T08:52:32.072Z</time></trkpt><trkpt lat="40.9956501" lon="17.2183798"><ele>25.0</ele><time>2026-04-19T08:55:20.072Z</time></trkpt><trkpt lat="40.9955811" lon="17.2184086"><ele>25.0</ele><time>2026-04-19T09:00:36.037Z</time></trkpt><trkpt lat="40.9955371" lon="17.2184795"><ele>25.0</ele><time>2026-04-19T09:02:35.071Z</time></trkpt><trkpt lat="40.9955987" lon="17.218444"><ele>25.0</ele><time>2026-04-19T09:03:35.631Z</time></trkpt><trkpt lat="40.9956639" lon="17.2184265"><ele>25.0</ele><time>2026-04-19T09:03:51.992Z</time></trkpt><trkpt lat="40.9955336" lon="17.2186695"><ele>25.000000000000004</ele><time>2026-04-19T09:03:54.143Z</time></trkpt><trkpt lat="40.9954752" lon="17.2187792"><ele>25.0</ele><time>2026-04-19T09:03:55.173Z</time></trkpt><trkpt lat="40.9954374" lon="17.2188633"><ele>25.0</ele><time>2026-04-19T09:03:58.41Z</time></trkpt><trkpt lat="40.9953718" lon="17.2188302"><ele>25.0</ele><time>2026-04-19T09:04:06.069Z</time></trkpt><trkpt lat="40.9953298" lon="17.2189028"><ele>25.000000000000004</ele><time>2026-04-19T09:04:14.664Z</time></trkpt><trkpt lat="40.9952819" lon="17.2189675"><ele>25.0</ele><time>2026-04-19T09:04:20.18Z</time></trkpt><trkpt lat="40.9952473" lon="17.2190599"><ele>25.571428571428573</ele><time>2026-04-19T09:04:25.027Z</time></trkpt><trkpt lat="40.9952367" lon="17.2191516"><ele>26.142857142857146</ele><time>2026-04-19T09:04:32.07Z</time></trkpt><trkpt lat="40.9952367" lon="17.2192376"><ele>26.714285714285715</ele><time>2026-04-19T09:04:36.031Z</time></trkpt><trkpt lat="40.9952918" lon="17.219322"><ele>27.28571428571429</ele><time>2026-04-19T09:05:55.071Z</time></trkpt><trkpt lat="40.9953292" lon="17.2193971"><ele>27.857142857142858</ele><time>2026-04-19T09:06:27.07Z</time></trkpt><trkpt lat="40.9953621" lon="17.2194843"><ele>28.428571428571434</ele><time>2026-04-19T09:06:38.605Z</time></trkpt><trkpt lat="40.9953114" lon="17.2195691"><ele>29.000000000000004</ele><time>2026-04-19T09:06:48.07Z</time></trkpt><trkpt lat="40.9953104" lon="17.2196732"><ele>29.000000000000004</ele><time>2026-04-19T09:06:55.033Z</time></trkpt><trkpt lat="40.9952993" lon="17.2197722"><ele>29.0</ele><time>2026-04-19T09:06:59.269Z</time></trkpt><trkpt lat="40.9952532" lon="17.2198302"><ele>29.000000000000004</ele><time>2026-04-19T09:07:18.07Z</time></trkpt><trkpt lat="40.9952617" lon="17.2199244"><ele>29.000000000000004</ele><time>2026-04-19T09:07:26.07Z</time></trkpt><trkpt lat="40.9952799" lon="17.2200086"><ele>29.0</ele><time>2026-04-19T09:07:36.07Z</time></trkpt><trkpt lat="40.9953006" lon="17.2200909"><ele>29.000000000000004</ele><time>2026-04-19T09:07:44.07Z</time></trkpt><trkpt lat="40.9952889" lon="17.220182"><ele>29.000000000000004</ele><time>2026-04-19T09:07:51.07Z</time></trkpt><trkpt lat="40.995299" lon="17.2202686"><ele>28.85714285714286</ele><time>2026-04-19T09:07:57.035Z</time></trkpt><trkpt lat="40.9952861" lon="17.2203507"><ele>28.714285714285715</ele><time>2026-04-19T09:08:04.069Z</time></trkpt><trkpt lat="40.9952513" lon="17.2204265"><ele>28.571428571428573</ele><time>2026-04-19T09:08:19Z</time></trkpt><trkpt lat="40.9952421" lon="17.2205093"><ele>28.42857142857143</ele><time>2026-04-19T09:08:26.07Z</time></trkpt><trkpt lat="40.9952804" lon="17.220609"><ele>28.285714285714285</ele><time>2026-04-19T09:08:30.069Z</time></trkpt><trkpt lat="40.9953062" lon="17.2206956"><ele>28.142857142857142</ele><time>2026-04-19T09:08:34.172Z</time></trkpt><trkpt lat="40.9953023" lon="17.2207817"><ele>28.0</ele><time>2026-04-19T09:08:41.057Z</time></trkpt><trkpt lat="40.9952767" lon="17.2208738"><ele>27.714285714285715</ele><time>2026-04-19T09:08:47.068Z</time></trkpt><trkpt lat="40.9952924" lon="17.2209557"><ele>27.42857142857143</ele><time>2026-04-19T09:08:51.069Z</time></trkpt><trkpt lat="40.9953391" lon="17.22106"><ele>27.142857142857142</ele><time>2026-04-19T09:08:55.069Z</time></trkpt><trkpt lat="40.9953463" lon="17.2211527"><ele>26.857142857142858</ele><time>2026-04-19T09:09:00.062Z</time></trkpt><trkpt lat="40.9953224" lon="17.2212343"><ele>26.571428571428573</ele><time>2026-04-19T09:09:08.07Z</time></trkpt><trkpt lat="40.9953215" lon="17.2213279"><ele>26.285714285714285</ele><time>2026-04-19T09:09:13.069Z</time></trkpt><trkpt lat="40.9953414" lon="17.2214118"><ele>26.0</ele><time>2026-04-19T09:09:22.069Z</time></trkpt><trkpt lat="40.995363" lon="17.2215"><ele>25.57142857142857</ele><time>2026-04-19T09:09:28.02Z</time></trkpt><trkpt lat="40.9953887" lon="17.2215898"><ele>25.142857142857146</ele><time>2026-04-19T09:09:34.069Z</time></trkpt><trkpt lat="40.9954131" lon="17.2216849"><ele>24.714285714285715</ele><time>2026-04-19T09:09:40.088Z</time></trkpt><trkpt lat="40.9954286" lon="17.2217659"><ele>24.285714285714285</ele><time>2026-04-19T09:09:44.069Z</time></trkpt><trkpt lat="40.9954359" lon="17.2218632"><ele>23.857142857142854</ele><time>2026-04-19T09:09:49.069Z</time></trkpt><trkpt lat="40.9954381" lon="17.2219559"><ele>23.42857142857143</ele><time>2026-04-19T09:09:55.069Z</time></trkpt><trkpt lat="40.9954904" lon="17.2220312"><ele>23.0</ele><time>2026-04-19T09:10:02.07Z</time></trkpt><trkpt lat="40.9955048" lon="17.2221213"><ele>23.0</ele><time>2026-04-19T09:10:08.069Z</time></trkpt><trkpt lat="40.9954957" lon="17.2222228"><ele>23.0</ele><time>2026-04-19T09:10:21.069Z</time></trkpt><trkpt lat="40.9954803" lon="17.222304"><ele>23.0</ele><time>2026-04-19T09:10:26.056Z</time></trkpt><trkpt lat="40.9954985" lon="17.2223937"><ele>23.0</ele><time>2026-04-19T09:10:32.07Z</time></trkpt><trkpt lat="40.9955107" lon="17.2224796"><ele>23.0</ele><time>2026-04-19T09:10:38.07Z</time></trkpt><trkpt lat="40.9955203" lon="17.2225753"><ele>23.0</ele><time>2026-04-19T09:10:44.069Z</time></trkpt><trkpt lat="40.9955186" lon="17.2226719"><ele>23.0</ele><time>2026-04-19T09:10:49.172Z</time></trkpt><trkpt lat="40.9955186" lon="17.2227639"><ele>23.0</ele><time>2026-04-19T09:10:55.578Z</time></trkpt><trkpt lat="40.9955277" lon="17.2228498"><ele>23.0</ele><time>2026-04-19T09:11:02.069Z</time></trkpt><trkpt lat="40.9955363" lon="17.2229366"><ele>23.0</ele><time>2026-04-19T09:11:08.069Z</time></trkpt><trkpt lat="40.995517" lon="17.2230259"><ele>23.0</ele><time>2026-04-19T09:11:14.169Z</time></trkpt><trkpt lat="40.9955381" lon="17.2231147"><ele>23.0</ele><time>2026-04-19T09:11:19.068Z</time></trkpt><trkpt lat="40.9955506" lon="17.2232042"><ele>23.0</ele><time>2026-04-19T09:11:24.069Z</time></trkpt><trkpt lat="40.9955854" lon="17.2232757"><ele>23.0</ele><time>2026-04-19T09:11:30.186Z</time></trkpt><trkpt lat="40.9955678" lon="17.2233726"><ele>22.857142857142858</ele><time>2026-04-19T09:11:35.857Z</time></trkpt><trkpt lat="40.9955513" lon="17.2234719"><ele>22.71428571428571</ele><time>2026-04-19T09:11:43.07Z</time></trkpt><trkpt lat="40.9955592" lon="17.2235625"><ele>22.57142857142857</ele><time>2026-04-19T09:11:49.619Z</time></trkpt><trkpt lat="40.9955723" lon="17.2236573"><ele>22.42857142857143</ele><time>2026-04-19T09:11:54.089Z</time></trkpt><trkpt lat="40.9955821" lon="17.2237447"><ele>22.285714285714285</ele><time>2026-04-19T09:11:59.172Z</time></trkpt><trkpt lat="40.9955913" lon="17.2238307"><ele>22.142857142857142</ele><time>2026-04-19T09:12:07.029Z</time></trkpt><trkpt lat="40.9955982" lon="17.2239356"><ele>22.0</ele><time>2026-04-19T09:12:12.069Z</time></trkpt><trkpt lat="40.9956013" lon="17.2240215"><ele>22.0</ele><time>2026-04-19T09:12:17.068Z</time></trkpt><trkpt lat="40.9956036" lon="17.2241063"><ele>22.0</ele><time>2026-04-19T09:12:23.335Z</time></trkpt><trkpt lat="40.9956168" lon="17.2242138"><ele>22.0</ele><time>2026-04-19T09:12:35.255Z</time></trkpt><trkpt lat="40.9956282" lon="17.2243055"><ele>22.0</ele><time>2026-04-19T09:12:41.659Z</time></trkpt><trkpt lat="40.9956337" lon="17.2243952"><ele>22.0</ele><time>2026-04-19T09:12:46.07Z</time></trkpt><trkpt lat="40.9956356" lon="17.2244837"><ele>22.0</ele><time>2026-04-19T09:12:51.08Z</time></trkpt><trkpt lat="40.9956399" lon="17.224596"><ele>22.0</ele><time>2026-04-19T09:12:57.169Z</time></trkpt><trkpt lat="40.9956526" lon="17.2246787"><ele>22.0</ele><time>2026-04-19T09:13:03.879Z</time></trkpt><trkpt lat="40.9956676" lon="17.2247612"><ele>22.0</ele><time>2026-04-19T09:13:10.068Z</time></trkpt><trkpt lat="40.9956702" lon="17.2248473"><ele>22.0</ele><time>2026-04-19T09:13:16.069Z</time></trkpt><trkpt lat="40.9956696" lon="17.2249445"><ele>22.0</ele><time>2026-04-19T09:13:20.23Z</time></trkpt><trkpt lat="40.9956789" lon="17.2250396"><ele>22.0</ele><time>2026-04-19T09:13:26.069Z</time></trkpt><trkpt lat="40.9956899" lon="17.2251257"><ele>22.0</ele><time>2026-04-19T09:13:33.069Z</time></trkpt><trkpt lat="40.9956979" lon="17.2252104"><ele>22.0</ele><time>2026-04-19T09:13:37.167Z</time></trkpt><trkpt lat="40.995748" lon="17.2252733"><ele>21.571428571428573</ele><time>2026-04-19T09:13:47.174Z</time></trkpt><trkpt lat="40.9958147" lon="17.2252514"><ele>21.142857142857142</ele><time>2026-04-19T09:13:52.52Z</time></trkpt><trkpt lat="40.9958825" lon="17.2252225"><ele>20.714285714285715</ele><time>2026-04-19T09:13:57.068Z</time></trkpt><trkpt lat="40.9959157" lon="17.2251463"><ele>20.285714285714285</ele><time>2026-04-19T09:14:00.185Z</time></trkpt><trkpt lat="40.9959845" lon="17.2251558"><ele>19.857142857142858</ele><time>2026-04-19T09:14:07.069Z</time></trkpt><trkpt lat="40.9960224" lon="17.2252306"><ele>19.428571428571427</ele><time>2026-04-19T09:14:11.218Z</time></trkpt><trkpt lat="40.9960435" lon="17.2253324"><ele>19.0</ele><time>2026-04-19T09:14:16.168Z</time></trkpt><trkpt lat="40.9960711" lon="17.225424"><ele>17.71428571428571</ele><time>2026-04-19T09:14:23.069Z</time></trkpt><trkpt lat="40.996052" lon="17.2255166"><ele>16.42857142857143</ele><time>2026-04-19T09:14:35.07Z</time></trkpt><trkpt lat="40.9960691" lon="17.2256007"><ele>15.142857142857142</ele><time>2026-04-19T09:14:43.07Z</time></trkpt><trkpt lat="40.9960507" lon="17.2256826"><ele>13.857142857142858</ele><time>2026-04-19T09:14:51.069Z</time></trkpt><trkpt lat="40.9960408" lon="17.225777"><ele>12.571428571428573</ele><time>2026-04-19T09:14:58.436Z</time></trkpt><trkpt lat="40.9960369" lon="17.2258722"><ele>11.285714285714285</ele><time>2026-04-19T09:15:05.069Z</time></trkpt><trkpt lat="40.9960093" lon="17.2259507"><ele>10.0</ele><time>2026-04-19T09:15:12.17Z</time></trkpt><trkpt lat="40.9959549" lon="17.2259941"><ele>9.571428571428571</ele><time>2026-04-19T09:15:20.166Z</time></trkpt><trkpt lat="40.995909" lon="17.2260566"><ele>9.142857142857142</ele><time>2026-04-19T09:15:27.175Z</time></trkpt><trkpt lat="40.9958645" lon="17.2261267"><ele>8.714285714285715</ele><time>2026-04-19T09:15:34.843Z</time></trkpt><trkpt lat="40.9958589" lon="17.2262169"><ele>8.285714285714285</ele><time>2026-04-19T09:15:40.07Z</time></trkpt><trkpt lat="40.995867" lon="17.226322"><ele>7.857142857142858</ele><time>2026-04-19T09:15:46.147Z</time></trkpt><trkpt lat="40.9958554" lon="17.2264047"><ele>7.428571428571429</ele><time>2026-04-19T09:15:52.069Z</time></trkpt><trkpt lat="40.9958446" lon="17.2264978"><ele>7.0</ele><time>2026-04-19T09:15:59.069Z</time></trkpt><trkpt lat="40.99582" lon="17.2265933"><ele>7.0</ele><time>2026-04-19T09:16:06.069Z</time></trkpt><trkpt lat="40.9957806" lon="17.2266718"><ele>7.0</ele><time>2026-04-19T09:16:13.07Z</time></trkpt><trkpt lat="40.9957497" lon="17.2267692"><ele>7.0</ele><time>2026-04-19T09:16:19.616Z</time></trkpt><trkpt lat="40.9957317" lon="17.2268622"><ele>7.0</ele><time>2026-04-19T09:16:24.168Z</time></trkpt><trkpt lat="40.9956951" lon="17.2269303"><ele>7.0</ele><time>2026-04-19T09:16:31.069Z</time></trkpt><trkpt lat="40.9956844" lon="17.2270183"><ele>7.0</ele><time>2026-04-19T09:16:36.093Z</time></trkpt><trkpt lat="40.9956893" lon="17.2271057"><ele>7.0</ele><time>2026-04-19T09:16:42.069Z</time></trkpt><trkpt lat="40.99567" lon="17.2271955"><ele>7.0</ele><time>2026-04-19T09:16:49.069Z</time></trkpt><trkpt lat="40.9956398" lon="17.2272737"><ele>7.0</ele><time>2026-04-19T09:16:57.069Z</time></trkpt><trkpt lat="40.9956119" lon="17.2273535"><ele>7.0</ele><time>2026-04-19T09:17:04.07Z</time></trkpt><trkpt lat="40.995604" lon="17.2274371"><ele>7.0</ele><time>2026-04-19T09:17:09.069Z</time></trkpt><trkpt lat="40.9956203" lon="17.2275322"><ele>7.0</ele><time>2026-04-19T09:17:16.069Z</time></trkpt><trkpt lat="40.9956251" lon="17.227617"><ele>7.0</ele><time>2026-04-19T09:17:23.07Z</time></trkpt><trkpt lat="40.9956149" lon="17.2277096"><ele>7.0</ele><time>2026-04-19T09:17:30.069Z</time></trkpt><trkpt lat="40.9955983" lon="17.2277952"><ele>7.0</ele><time>2026-04-19T09:17:37.069Z</time></trkpt><trkpt lat="40.9955846" lon="17.2278857"><ele>7.0</ele><time>2026-04-19T09:17:44.069Z</time></trkpt><trkpt lat="40.9955696" lon="17.2279703"><ele>7.0</ele><time>2026-04-19T09:17:52.069Z</time></trkpt><trkpt lat="40.9955174" lon="17.2280338"><ele>7.0</ele><time>2026-04-19T09:17:59.069Z</time></trkpt><trkpt lat="40.9954668" lon="17.2280902"><ele>7.0</ele><time>2026-04-19T09:18:05.07Z</time></trkpt><trkpt lat="40.9954192" lon="17.2281453"><ele>7.0</ele><time>2026-04-19T09:18:13.068Z</time></trkpt><trkpt lat="40.9953864" lon="17.2282182"><ele>7.0</ele><time>2026-04-19T09:18:49.069Z</time></trkpt><trkpt lat="40.9953327" lon="17.2282699"><ele>6.857142857142857</ele><time>2026-04-19T09:18:56.069Z</time></trkpt><trkpt lat="40.9952797" lon="17.2283236"><ele>6.714285714285714</ele><time>2026-04-19T09:19:09.07Z</time></trkpt><trkpt lat="40.9952269" lon="17.2283804"><ele>6.571428571428571</ele><time>2026-04-19T09:19:17.07Z</time></trkpt><trkpt lat="40.9951796" lon="17.2284368"><ele>6.428571428571429</ele><time>2026-04-19T09:19:25.069Z</time></trkpt><trkpt lat="40.9951231" lon="17.228485"><ele>6.285714285714286</ele><time>2026-04-19T09:19:31.98Z</time></trkpt><trkpt lat="40.9950797" lon="17.2285484"><ele>6.142857142857142</ele><time>2026-04-19T09:19:39.068Z</time></trkpt><trkpt lat="40.9950141" lon="17.2285696"><ele>6.0</ele><time>2026-04-19T09:19:46.069Z</time></trkpt><trkpt lat="40.9949557" lon="17.2285269"><ele>7.142857142857142</ele><time>2026-04-19T09:19:51.07Z</time></trkpt><trkpt lat="40.9948894" lon="17.2285436"><ele>8.285714285714285</ele><time>2026-04-19T09:19:58.069Z</time></trkpt><trkpt lat="40.9948316" lon="17.2285965"><ele>9.428571428571429</ele><time>2026-04-19T09:20:05.065Z</time></trkpt><trkpt lat="40.9947675" lon="17.2286372"><ele>10.571428571428571</ele><time>2026-04-19T09:20:12.07Z</time></trkpt><trkpt lat="40.9947037" lon="17.2286668"><ele>11.714285714285714</ele><time>2026-04-19T09:20:19.07Z</time></trkpt><trkpt lat="40.9946385" lon="17.2286848"><ele>12.857142857142858</ele><time>2026-04-19T09:20:25.068Z</time></trkpt><trkpt lat="40.9945692" lon="17.2287005"><ele>14.0</ele><time>2026-04-19T09:20:31.984Z</time></trkpt><trkpt lat="40.9945144" lon="17.2287451"><ele>14.0</ele><time>2026-04-19T09:20:36.967Z</time></trkpt><trkpt lat="40.994451" lon="17.2287629"><ele>14.0</ele><time>2026-04-19T09:20:42.164Z</time></trkpt><trkpt lat="40.9943788" lon="17.2287775"><ele>14.0</ele><time>2026-04-19T09:20:50.232Z</time></trkpt><trkpt lat="40.9943098" lon="17.228829"><ele>14.0</ele><time>2026-04-19T09:20:59.257Z</time></trkpt><trkpt lat="40.9942537" lon="17.2288841"><ele>14.0</ele><time>2026-04-19T09:21:07.068Z</time></trkpt><trkpt lat="40.9942024" lon="17.2289454"><ele>14.0</ele><time>2026-04-19T09:21:14.069Z</time></trkpt><trkpt lat="40.9941464" lon="17.2289859"><ele>14.0</ele><time>2026-04-19T09:21:22.069Z</time></trkpt><trkpt lat="40.9940756" lon="17.2290041"><ele>13.714285714285714</ele><time>2026-04-19T09:21:29.24Z</time></trkpt><trkpt lat="40.9940082" lon="17.2290232"><ele>13.428571428571429</ele><time>2026-04-19T09:21:36.175Z</time></trkpt><trkpt lat="40.9939415" lon="17.2290415"><ele>13.142857142857142</ele><time>2026-04-19T09:21:44.069Z</time></trkpt><trkpt lat="40.9938713" lon="17.2290591"><ele>12.857142857142858</ele><time>2026-04-19T09:21:51.183Z</time></trkpt><trkpt lat="40.9938021" lon="17.2290669"><ele>12.571428571428571</ele><time>2026-04-19T09:21:58.172Z</time></trkpt><trkpt lat="40.9937356" lon="17.2290751"><ele>12.285714285714285</ele><time>2026-04-19T09:22:06.171Z</time></trkpt><trkpt lat="40.9936705" lon="17.2291246"><ele>12.0</ele><time>2026-04-19T09:22:12.998Z</time></trkpt><trkpt lat="40.9936034" lon="17.2291862"><ele>11.999999999999998</ele><time>2026-04-19T09:22:19.255Z</time></trkpt><trkpt lat="40.9935451" lon="17.2292366"><ele>12.0</ele><time>2026-04-19T09:22:26.068Z</time></trkpt><trkpt lat="40.9934808" lon="17.2292648"><ele>12.0</ele><time>2026-04-19T09:22:32.068Z</time></trkpt><trkpt lat="40.9934153" lon="17.2293042"><ele>12.0</ele><time>2026-04-19T09:22:38.019Z</time></trkpt><trkpt lat="40.9933515" lon="17.2293272"><ele>12.0</ele><time>2026-04-19T09:22:58.068Z</time></trkpt><trkpt lat="40.9933045" lon="17.2293964"><ele>11.999999999999998</ele><time>2026-04-19T09:23:03.069Z</time></trkpt><trkpt lat="40.9932774" lon="17.229484"><ele>12.0</ele><time>2026-04-19T09:23:08.423Z</time></trkpt><trkpt lat="40.9932562" lon="17.2295746"><ele>11.857142857142856</ele><time>2026-04-19T09:23:14.068Z</time></trkpt><trkpt lat="40.9932371" lon="17.2296574"><ele>11.714285714285714</ele><time>2026-04-19T09:23:19.148Z</time></trkpt><trkpt lat="40.9932149" lon="17.2297463"><ele>11.571428571428571</ele><time>2026-04-19T09:23:25.068Z</time></trkpt><trkpt lat="40.9931986" lon="17.2298429"><ele>11.428571428571427</ele><time>2026-04-19T09:23:31.068Z</time></trkpt><trkpt lat="40.9931914" lon="17.2299279"><ele>11.285714285714285</ele><time>2026-04-19T09:23:37.068Z</time></trkpt><trkpt lat="40.9931944" lon="17.2298407"><ele>11.142857142857142</ele><time>2026-04-19T09:23:52.069Z</time></trkpt><trkpt lat="40.993214" lon="17.229755"><ele>11.0</ele><time>2026-04-19T09:23:58.068Z</time></trkpt><trkpt lat="40.9932254" lon="17.2298449"><ele>11.0</ele><time>2026-04-19T09:24:07.069Z</time></trkpt><trkpt lat="40.9932089" lon="17.2299307"><ele>11.0</ele><time>2026-04-19T09:24:15.068Z</time></trkpt><trkpt lat="40.9931947" lon="17.2300208"><ele>11.0</ele><time>2026-04-19T09:24:27.069Z</time></trkpt><trkpt lat="40.9932011" lon="17.2301051"><ele>11.0</ele><time>2026-04-19T09:24:38.068Z</time></trkpt><trkpt lat="40.9931764" lon="17.2301925"><ele>11.0</ele><time>2026-04-19T09:24:45.069Z</time></trkpt><trkpt lat="40.993161" lon="17.2302818"><ele>11.0</ele><time>2026-04-19T09:24:53.068Z</time></trkpt><trkpt lat="40.9931466" lon="17.2303646"><ele>11.0</ele><time>2026-04-19T09:25:05.068Z</time></trkpt><trkpt lat="40.9931248" lon="17.230451"><ele>11.0</ele><time>2026-04-19T09:25:31.068Z</time></trkpt><trkpt lat="40.9931118" lon="17.2305384"><ele>11.0</ele><time>2026-04-19T09:25:41.039Z</time></trkpt><trkpt lat="40.993101" lon="17.2306699"><ele>11.0</ele><time>2026-04-19T09:26:03.068Z</time></trkpt><trkpt lat="40.9931058" lon="17.2307594"><ele>11.0</ele><time>2026-04-19T09:26:33.069Z</time></trkpt><trkpt lat="40.9930896" lon="17.230849"><ele>11.0</ele><time>2026-04-19T09:26:42.068Z</time></trkpt><trkpt lat="40.99306" lon="17.2309479"><ele>11.0</ele><time>2026-04-19T09:27:16.176Z</time></trkpt><trkpt lat="40.993037" lon="17.2310435"><ele>10.857142857142858</ele><time>2026-04-19T09:27:23.156Z</time></trkpt><trkpt lat="40.993004" lon="17.2311391"><ele>10.714285714285714</ele><time>2026-04-19T09:27:50.625Z</time></trkpt><trkpt lat="40.9930506" lon="17.2312085"><ele>10.571428571428571</ele><time>2026-04-19T09:27:57.083Z</time></trkpt><trkpt lat="40.9930909" lon="17.2312741"><ele>10.428571428571429</ele><time>2026-04-19T09:28:03.068Z</time></trkpt><trkpt lat="40.993108" lon="17.2313552"><ele>10.285714285714286</ele><time>2026-04-19T09:28:09.261Z</time></trkpt><trkpt lat="40.9931108" lon="17.2314453"><ele>10.142857142857142</ele><time>2026-04-19T09:28:16.069Z</time></trkpt><trkpt lat="40.9930648" lon="17.2315109"><ele>10.0</ele><time>2026-04-19T09:28:22.198Z</time></trkpt><trkpt lat="40.9930301" lon="17.2315867"><ele>9.285714285714285</ele><time>2026-04-19T09:28:29.068Z</time></trkpt><trkpt lat="40.9929779" lon="17.2316798"><ele>8.571428571428571</ele><time>2026-04-19T09:28:44.068Z</time></trkpt><trkpt lat="40.9929295" lon="17.2317487"><ele>7.857142857142858</ele><time>2026-04-19T09:28:49.068Z</time></trkpt><trkpt lat="40.9928952" lon="17.2318281"><ele>7.142857142857142</ele><time>2026-04-19T09:28:54.068Z</time></trkpt><trkpt lat="40.9928792" lon="17.2319099"><ele>6.428571428571429</ele><time>2026-04-19T09:28:59.287Z</time></trkpt><trkpt lat="40.9928835" lon="17.2319998"><ele>5.714285714285714</ele><time>2026-04-19T09:29:05.173Z</time></trkpt><trkpt lat="40.9928755" lon="17.2320892"><ele>5.0</ele><time>2026-04-19T09:29:11.16Z</time></trkpt><trkpt lat="40.9928243" lon="17.2321609"><ele>5.0</ele><time>2026-04-19T09:29:17.568Z</time></trkpt><trkpt lat="40.9927562" lon="17.2322065"><ele>5.0</ele><time>2026-04-19T09:29:23.176Z</time></trkpt><trkpt lat="40.9927089" lon="17.2322707"><ele>5.0</ele><time>2026-04-19T09:29:30.068Z</time></trkpt><trkpt lat="40.9926973" lon="17.2323635"><ele>5.0</ele><time>2026-04-19T09:29:36.068Z</time></trkpt><trkpt lat="40.9926797" lon="17.2324522"><ele>5.0</ele><time>2026-04-19T09:29:42.961Z</time></trkpt><trkpt lat="40.9926455" lon="17.2325358"><ele>5.0</ele><time>2026-04-19T09:29:49.783Z</time></trkpt><trkpt lat="40.9926265" lon="17.2326303"><ele>5.0</ele><time>2026-04-19T09:29:57.069Z</time></trkpt><trkpt lat="40.9925791" lon="17.232699"><ele>4.571428571428571</ele><time>2026-04-19T09:30:03.938Z</time></trkpt><trkpt lat="40.9925756" lon="17.2327854"><ele>4.142857142857143</ele><time>2026-04-19T09:30:21.068Z</time></trkpt><trkpt lat="40.9925288" lon="17.2328416"><ele>3.7142857142857144</ele><time>2026-04-19T09:30:26.068Z</time></trkpt><trkpt lat="40.9924813" lon="17.2329006"><ele>3.2857142857142856</ele><time>2026-04-19T09:30:32.069Z</time></trkpt><trkpt lat="40.9924399" lon="17.2329638"><ele>2.8571428571428568</ele><time>2026-04-19T09:30:39.068Z</time></trkpt><trkpt lat="40.9924123" lon="17.2330404"><ele>2.4285714285714284</ele><time>2026-04-19T09:30:46.069Z</time></trkpt><trkpt lat="40.9923684" lon="17.2331332"><ele>2.0</ele><time>2026-04-19T09:31:22.068Z</time></trkpt><trkpt lat="40.9923153" lon="17.233088"><ele>2.333333333333333</ele><time>2026-04-19T09:31:30.017Z</time></trkpt><trkpt lat="40.9922678" lon="17.2330296"><ele>2.6666666666666665</ele><time>2026-04-19T09:31:35.843Z</time></trkpt><trkpt lat="40.9922218" lon="17.2332047"><ele>3.0</ele><time>2026-04-19T09:31:36.982Z</time></trkpt><trkpt lat="40.9921756" lon="17.2332678"><ele>3.333333333333333</ele><time>2026-04-19T09:31:40.234Z</time></trkpt><trkpt lat="40.9921185" lon="17.2333212"><ele>3.6666666666666665</ele><time>2026-04-19T09:31:46.118Z</time></trkpt><trkpt lat="40.9920512" lon="17.2332378"><ele>4.0</ele><time>2026-04-19T09:32:17.067Z</time></trkpt><trkpt lat="40.9919886" lon="17.233206"><ele>4.0</ele><time>2026-04-19T09:32:26.067Z</time></trkpt><trkpt lat="40.9919229" lon="17.2331989"><ele>3.9999999999999996</ele><time>2026-04-19T09:32:32.068Z</time></trkpt><trkpt lat="40.9918659" lon="17.2332516"><ele>4.0</ele><time>2026-04-19T09:32:39.068Z</time></trkpt><trkpt lat="40.9917987" lon="17.2332423"><ele>4.0</ele><time>2026-04-19T09:32:48.067Z</time></trkpt><trkpt lat="40.9917356" lon="17.233259"><ele>3.9999999999999996</ele><time>2026-04-19T09:32:56.068Z</time></trkpt><trkpt lat="40.9916694" lon="17.2332684"><ele>4.0</ele><time>2026-04-19T09:33:02.068Z</time></trkpt><trkpt lat="40.9916078" lon="17.2332301"><ele>4.0</ele><time>2026-04-19T09:33:10.742Z</time></trkpt><trkpt lat="40.9915408" lon="17.2332429"><ele>4.0</ele><time>2026-04-19T09:33:19.068Z</time></trkpt><trkpt lat="40.9914913" lon="17.2333088"><ele>3.9999999999999996</ele><time>2026-04-19T09:33:32.168Z</time></trkpt><trkpt lat="40.9915112" lon="17.2333919"><ele>4.0</ele><time>2026-04-19T09:33:40.177Z</time></trkpt><trkpt lat="40.9915628" lon="17.2334452"><ele>4.0</ele><time>2026-04-19T09:34:04.067Z</time></trkpt><trkpt lat="40.9916234" lon="17.2334852"><ele>3.9999999999999996</ele><time>2026-04-19T09:34:09.067Z</time></trkpt><trkpt lat="40.9916885" lon="17.2335189"><ele>4.0</ele><time>2026-04-19T09:34:19.09Z</time></trkpt><trkpt lat="40.991707" lon="17.2336108"><ele>4.0</ele><time>2026-04-19T09:34:29.042Z</time></trkpt><trkpt lat="40.9917284" lon="17.2337029"><ele>4.0</ele><time>2026-04-19T09:34:54.066Z</time></trkpt><trkpt lat="40.9917687" lon="17.2337725"><ele>3.9999999999999996</ele><time>2026-04-19T09:35:00.068Z</time></trkpt><trkpt lat="40.9918142" lon="17.2338445"><ele>4.0</ele><time>2026-04-19T09:35:08.572Z</time></trkpt><trkpt lat="40.99182" lon="17.2339485"><ele>4.0</ele><time>2026-04-19T09:35:17.068Z</time></trkpt><trkpt lat="40.9918153" lon="17.2340458"><ele>3.9999999999999996</ele><time>2026-04-19T09:35:22.26Z</time></trkpt><trkpt lat="40.991868" lon="17.2341099"><ele>4.0</ele><time>2026-04-19T09:35:28.192Z</time></trkpt><trkpt lat="40.9919386" lon="17.2340832"><ele>4.0</ele><time>2026-04-19T09:35:34.053Z</time></trkpt><trkpt lat="40.9919981" lon="17.2341291"><ele>4.0</ele><time>2026-04-19T09:35:42.183Z</time></trkpt><trkpt lat="40.9919429" lon="17.2341783"><ele>3.9999999999999996</ele><time>2026-04-19T09:35:53.067Z</time></trkpt><trkpt lat="40.9918905" lon="17.2342368"><ele>4.0</ele><time>2026-04-19T09:36:15.185Z</time></trkpt><trkpt lat="40.9919085" lon="17.23432"><ele>4.0</ele><time>2026-04-19T09:36:21.189Z</time></trkpt><trkpt lat="40.9919671" lon="17.2343551"><ele>3.9999999999999996</ele><time>2026-04-19T09:36:27.068Z</time></trkpt><trkpt lat="40.9920108" lon="17.2344294"><ele>4.0</ele><time>2026-04-19T09:36:57.068Z</time></trkpt><trkpt lat="40.9920421" lon="17.2345027"><ele>4.0</ele><time>2026-04-19T09:37:04.067Z</time></trkpt><trkpt lat="40.9921051" lon="17.2345381"><ele>4.0</ele><time>2026-04-19T09:37:10.205Z</time></trkpt><trkpt lat="40.9921718" lon="17.2345751"><ele>3.9999999999999996</ele><time>2026-04-19T09:37:17.186Z</time></trkpt><trkpt lat="40.992186" lon="17.2346627"><ele>4.0</ele><time>2026-04-19T09:37:26.174Z</time></trkpt><trkpt lat="40.9922012" lon="17.2347445"><ele>4.0</ele><time>2026-04-19T09:37:32.183Z</time></trkpt><trkpt lat="40.9922327" lon="17.2348302"><ele>3.9999999999999996</ele><time>2026-04-19T09:37:39.068Z</time></trkpt><trkpt lat="40.9922291" lon="17.2349237"><ele>4.0</ele><time>2026-04-19T09:37:46.077Z</time></trkpt><trkpt lat="40.9922262" lon="17.2350077"><ele>4.0</ele><time>2026-04-19T09:37:53.477Z</time></trkpt><trkpt lat="40.9922589" lon="17.2350798"><ele>3.8571428571428568</ele><time>2026-04-19T09:37:59.811Z</time></trkpt><trkpt lat="40.9922805" lon="17.2351762"><ele>3.714285714285714</ele><time>2026-04-19T09:38:08.067Z</time></trkpt><trkpt lat="40.9923154" lon="17.2352665"><ele>3.571428571428571</ele><time>2026-04-19T09:38:14.793Z</time></trkpt><trkpt lat="40.9923404" lon="17.2353574"><ele>3.4285714285714284</ele><time>2026-04-19T09:38:20.217Z</time></trkpt><trkpt lat="40.9923731" lon="17.2354412"><ele>3.2857142857142856</ele><time>2026-04-19T09:38:26.961Z</time></trkpt><trkpt lat="40.9924003" lon="17.2355222"><ele>3.1428571428571423</ele><time>2026-04-19T09:38:34.431Z</time></trkpt><trkpt lat="40.9924282" lon="17.2356042"><ele>3.0</ele><time>2026-04-19T09:38:41.068Z</time></trkpt><trkpt lat="40.9924608" lon="17.2356887"><ele>3.2857142857142856</ele><time>2026-04-19T09:38:48.067Z</time></trkpt><trkpt lat="40.9924788" lon="17.2357753"><ele>3.571428571428571</ele><time>2026-04-19T09:38:55.067Z</time></trkpt><trkpt lat="40.9925039" lon="17.2358542"><ele>3.8571428571428568</ele><time>2026-04-19T09:39:01.067Z</time></trkpt><trkpt lat="40.9925121" lon="17.2359431"><ele>4.142857142857142</ele><time>2026-04-19T09:39:08.067Z</time></trkpt><trkpt lat="40.9924991" lon="17.236044"><ele>4.428571428571429</ele><time>2026-04-19T09:39:14.239Z</time></trkpt><trkpt lat="40.9924844" lon="17.236126"><ele>4.714285714285714</ele><time>2026-04-19T09:39:20.094Z</time></trkpt><trkpt lat="40.9924665" lon="17.2362077"><ele>5.0</ele><time>2026-04-19T09:39:25.067Z</time></trkpt><trkpt lat="40.9924413" lon="17.2363003"><ele>5.0</ele><time>2026-04-19T09:39:31.163Z</time></trkpt><trkpt lat="40.9924299" lon="17.2363874"><ele>5.0</ele><time>2026-04-19T09:39:37.186Z</time></trkpt><trkpt lat="40.9924102" lon="17.2364703"><ele>5.0</ele><time>2026-04-19T09:39:43.067Z</time></trkpt><trkpt lat="40.992376" lon="17.2365526"><ele>5.0</ele><time>2026-04-19T09:39:49.066Z</time></trkpt><trkpt lat="40.9923686" lon="17.2366376"><ele>5.0</ele><time>2026-04-19T09:39:55.232Z</time></trkpt><trkpt lat="40.9923286" lon="17.2367154"><ele>5.0</ele><time>2026-04-19T09:40:01.172Z</time></trkpt><trkpt lat="40.992272" lon="17.2367805"><ele>5.0</ele><time>2026-04-19T09:40:09.179Z</time></trkpt><trkpt lat="40.9922525" lon="17.2368601"><ele>4.666666666666667</ele><time>2026-04-19T09:40:14.818Z</time></trkpt><trkpt lat="40.9922276" lon="17.2369483"><ele>4.333333333333334</ele><time>2026-04-19T09:40:21.512Z</time></trkpt><trkpt lat="40.9921779" lon="17.2370004"><ele>4.0</ele><time>2026-04-19T09:40:27.18Z</time></trkpt><trkpt lat="40.9921167" lon="17.2369438"><ele>3.666666666666667</ele><time>2026-04-19T09:40:51.477Z</time></trkpt><trkpt lat="40.992079" lon="17.2371125"><ele>3.3333333333333335</ele><time>2026-04-19T09:40:53.717Z</time></trkpt><trkpt lat="40.9920474" lon="17.237197"><ele>3.0</ele><time>2026-04-19T09:40:57.376Z</time></trkpt><trkpt lat="40.9920057" lon="17.2372668"><ele>2.8571428571428568</ele><time>2026-04-19T09:41:17.818Z</time></trkpt><trkpt lat="40.9919664" lon="17.237337"><ele>2.7142857142857144</ele><time>2026-04-19T09:41:46.175Z</time></trkpt><trkpt lat="40.9918995" lon="17.2373648"><ele>2.571428571428571</ele><time>2026-04-19T09:41:52.068Z</time></trkpt><trkpt lat="40.9918295" lon="17.2373579"><ele>2.4285714285714284</ele><time>2026-04-19T09:41:57.512Z</time></trkpt><trkpt lat="40.9917617" lon="17.2373823"><ele>2.2857142857142856</ele><time>2026-04-19T09:42:05.067Z</time></trkpt><trkpt lat="40.9917001" lon="17.2374154"><ele>2.142857142857143</ele><time>2026-04-19T09:42:11.244Z</time></trkpt><trkpt lat="40.9916387" lon="17.2374426"><ele>2.0</ele><time>2026-04-19T09:42:23.067Z</time></trkpt><trkpt lat="40.9916031" lon="17.2375253"><ele>2.0</ele><time>2026-04-19T09:42:38.067Z</time></trkpt><trkpt lat="40.9915407" lon="17.237567"><ele>1.9999999999999998</ele><time>2026-04-19T09:42:44.937Z</time></trkpt><trkpt lat="40.9914833" lon="17.2376119"><ele>2.0</ele><time>2026-04-19T09:42:54.066Z</time></trkpt><trkpt lat="40.9914203" lon="17.2376393"><ele>2.0</ele><time>2026-04-19T09:43:13.068Z</time></trkpt><trkpt lat="40.9913647" lon="17.237697"><ele>1.9999999999999998</ele><time>2026-04-19T09:43:29.066Z</time></trkpt><trkpt lat="40.9913011" lon="17.2376414"><ele>2.0</ele><time>2026-04-19T09:43:40.095Z</time></trkpt><trkpt lat="40.9912373" lon="17.2376356"><ele>2.0</ele><time>2026-04-19T09:43:46.165Z</time></trkpt><trkpt lat="40.9911886" lon="17.2377005"><ele>2.0</ele><time>2026-04-19T09:43:53.17Z</time></trkpt><trkpt lat="40.9911581" lon="17.2377914"><ele>1.9999999999999998</ele><time>2026-04-19T09:44:00.067Z</time></trkpt><trkpt lat="40.9911234" lon="17.2378636"><ele>2.0</ele><time>2026-04-19T09:44:07.067Z</time></trkpt><trkpt lat="40.9910602" lon="17.2379075"><ele>2.0</ele><time>2026-04-19T09:44:15.056Z</time></trkpt><trkpt lat="40.99099" lon="17.2379003"><ele>1.9999999999999998</ele><time>2026-04-19T09:46:42.592Z</time></trkpt><trkpt lat="40.9909179" lon="17.2379247"><ele>2.0</ele><time>2026-04-19T09:46:49.721Z</time></trkpt><trkpt lat="40.9908505" lon="17.2378983"><ele>2.0</ele><time>2026-04-19T09:47:04.066Z</time></trkpt><trkpt lat="40.9907858" lon="17.2378622"><ele>3.0</ele><time>2026-04-19T09:47:22.066Z</time></trkpt><trkpt lat="40.990718" lon="17.2378502"><ele>4.0</ele><time>2026-04-19T09:47:31.183Z</time></trkpt><trkpt lat="40.9906539" lon="17.2378356"><ele>5.0</ele><time>2026-04-19T09:47:40.066Z</time></trkpt><trkpt lat="40.9906006" lon="17.2377901"><ele>6.0</ele><time>2026-04-19T09:47:52.066Z</time></trkpt><trkpt lat="40.9905461" lon="17.2377388"><ele>7.0</ele><time>2026-04-19T09:47:58.035Z</time></trkpt><trkpt lat="40.9905666" lon="17.237826"><ele>8.000000000000002</ele><time>2026-04-19T09:48:14.015Z</time></trkpt><trkpt lat="40.990619" lon="17.2378862"><ele>9.0</ele><time>2026-04-19T09:48:19.066Z</time></trkpt><trkpt lat="40.9906862" lon="17.2379172"><ele>9.000000000000002</ele><time>2026-04-19T09:48:30.066Z</time></trkpt><trkpt lat="40.9907504" lon="17.2379097"><ele>9.0</ele><time>2026-04-19T09:48:38.174Z</time></trkpt><trkpt lat="40.9907502" lon="17.2380031"><ele>9.0</ele><time>2026-04-19T09:50:06.067Z</time></trkpt><trkpt lat="40.9906787" lon="17.2380292"><ele>9.0</ele><time>2026-04-19T09:50:26.067Z</time></trkpt><trkpt lat="40.990653" lon="17.2381157"><ele>9.0</ele><time>2026-04-19T09:50:33.066Z</time></trkpt><trkpt lat="40.9906053" lon="17.2380535"><ele>9.000000000000002</ele><time>2026-04-19T09:50:58.074Z</time></trkpt><trkpt lat="40.9905441" lon="17.238016"><ele>9.0</ele><time>2026-04-19T09:51:04.066Z</time></trkpt><trkpt lat="40.9904892" lon="17.2379591"><ele>9.000000000000002</ele><time>2026-04-19T09:51:16.054Z</time></trkpt><trkpt lat="40.9904277" lon="17.2379817"><ele>9.0</ele><time>2026-04-19T09:51:24.987Z</time></trkpt><trkpt lat="40.9903794" lon="17.2380391"><ele>9.0</ele><time>2026-04-19T09:51:32.168Z</time></trkpt><trkpt lat="40.9903985" lon="17.2381216"><ele>9.0</ele><time>2026-04-19T09:53:08.18Z</time></trkpt><trkpt lat="40.9904025" lon="17.2382142"><ele>9.0</ele><time>2026-04-19T09:54:03.167Z</time></trkpt><trkpt lat="40.9904742" lon="17.2382328"><ele>9.000000000000002</ele><time>2026-04-19T09:54:29.247Z</time></trkpt><trkpt lat="40.9905234" lon="17.2382874"><ele>9.0</ele><time>2026-04-19T09:54:35.066Z</time></trkpt><trkpt lat="40.9905765" lon="17.2383336"><ele>8.142857142857144</ele><time>2026-04-19T09:54:42.17Z</time></trkpt><trkpt lat="40.9906101" lon="17.2382609"><ele>7.285714285714286</ele><time>2026-04-19T09:54:54.135Z</time></trkpt><trkpt lat="40.9906475" lon="17.2383419"><ele>6.428571428571429</ele><time>2026-04-19T09:56:29.066Z</time></trkpt><trkpt lat="40.9906978" lon="17.2383998"><ele>5.571428571428572</ele><time>2026-04-19T09:56:36.06Z</time></trkpt><trkpt lat="40.9907192" lon="17.2384871"><ele>4.714285714285714</ele><time>2026-04-19T09:56:47.081Z</time></trkpt><trkpt lat="40.9907496" lon="17.2385634"><ele>3.8571428571428568</ele><time>2026-04-19T09:56:54.065Z</time></trkpt><trkpt lat="40.9907882" lon="17.2386331"><ele>3.0</ele><time>2026-04-19T09:57:03.066Z</time></trkpt><trkpt lat="40.9908171" lon="17.2387167"><ele>3.0</ele><time>2026-04-19T09:57:10.435Z</time></trkpt><trkpt lat="40.9908145" lon="17.2388006"><ele>3.0</ele><time>2026-04-19T09:57:26.066Z</time></trkpt><trkpt lat="40.9907683" lon="17.2388867"><ele>3.0</ele><time>2026-04-19T09:57:33.677Z</time></trkpt><trkpt lat="40.9907129" lon="17.2389402"><ele>3.0</ele><time>2026-04-19T09:57:39.181Z</time></trkpt><trkpt lat="40.9906832" lon="17.2390192"><ele>3.0</ele><time>2026-04-19T09:57:46.161Z</time></trkpt><trkpt lat="40.9906272" lon="17.2390632"><ele>3.0</ele><time>2026-04-19T09:57:54.224Z</time></trkpt><trkpt lat="40.990546" lon="17.2391797"><ele>2.8571428571428568</ele><time>2026-04-19T09:58:19.066Z</time></trkpt><trkpt lat="40.9904745" lon="17.2391877"><ele>2.7142857142857144</ele><time>2026-04-19T09:58:30.219Z</time></trkpt><trkpt lat="40.9904292" lon="17.2392563"><ele>2.571428571428571</ele><time>2026-04-19T09:58:36.995Z</time></trkpt><trkpt lat="40.9903807" lon="17.2393101"><ele>2.4285714285714284</ele><time>2026-04-19T09:58:43.065Z</time></trkpt><trkpt lat="40.9903171" lon="17.239348"><ele>2.2857142857142856</ele><time>2026-04-19T09:58:49.621Z</time></trkpt><trkpt lat="40.9902767" lon="17.2394225"><ele>2.142857142857143</ele><time>2026-04-19T09:58:55.198Z</time></trkpt><trkpt lat="40.9902457" lon="17.2395025"><ele>2.0</ele><time>2026-04-19T09:59:01.862Z</time></trkpt><trkpt lat="40.9901892" lon="17.2395445"><ele>2.0</ele><time>2026-04-19T09:59:08.061Z</time></trkpt><trkpt lat="40.9901323" lon="17.2395922"><ele>1.9999999999999998</ele><time>2026-04-19T09:59:16Z</time></trkpt><trkpt lat="40.9900757" lon="17.2396295"><ele>2.0</ele><time>2026-04-19T09:59:35.065Z</time></trkpt><trkpt lat="40.9900432" lon="17.2397099"><ele>2.0</ele><time>2026-04-19T09:59:41.065Z</time></trkpt><trkpt lat="40.9900402" lon="17.2397988"><ele>1.9999999999999998</ele><time>2026-04-19T09:59:47.066Z</time></trkpt><trkpt lat="40.9900059" lon="17.2398809"><ele>2.0</ele><time>2026-04-19T10:00:04.065Z</time></trkpt><trkpt lat="40.9899656" lon="17.2399458"><ele>2.0</ele><time>2026-04-19T10:00:09.065Z</time></trkpt><trkpt lat="40.9899203" lon="17.2400168"><ele>2.142857142857143</ele><time>2026-04-19T10:00:15.066Z</time></trkpt><trkpt lat="40.9898623" lon="17.2400703"><ele>2.2857142857142856</ele><time>2026-04-19T10:00:21.065Z</time></trkpt><trkpt lat="40.9898183" lon="17.2401441"><ele>2.4285714285714284</ele><time>2026-04-19T10:00:28.065Z</time></trkpt><trkpt lat="40.9897754" lon="17.2402113"><ele>2.571428571428571</ele><time>2026-04-19T10:00:35.006Z</time></trkpt><trkpt lat="40.9897255" lon="17.2402766"><ele>2.7142857142857144</ele><time>2026-04-19T10:00:42.066Z</time></trkpt><trkpt lat="40.989676" lon="17.2403477"><ele>2.8571428571428568</ele><time>2026-04-19T10:00:54.072Z</time></trkpt><trkpt lat="40.9896125" lon="17.2403827"><ele>3.0</ele><time>2026-04-19T10:00:59.994Z</time></trkpt><trkpt lat="40.9895522" lon="17.2404081"><ele>2.9999999999999996</ele><time>2026-04-19T10:01:06.065Z</time></trkpt><trkpt lat="40.9894904" lon="17.2404522"><ele>3.0</ele><time>2026-04-19T10:01:13.065Z</time></trkpt><trkpt lat="40.989437" lon="17.2405006"><ele>3.0</ele><time>2026-04-19T10:01:20.065Z</time></trkpt><trkpt lat="40.9893766" lon="17.240535"><ele>3.0</ele><time>2026-04-19T10:01:26.065Z</time></trkpt><trkpt lat="40.989322" lon="17.2405808"><ele>3.0</ele><time>2026-04-19T10:01:32.064Z</time></trkpt><trkpt lat="40.9892621" lon="17.2406421"><ele>2.9999999999999996</ele><time>2026-04-19T10:01:39.09Z</time></trkpt><trkpt lat="40.9892031" lon="17.2407049"><ele>3.0</ele><time>2026-04-19T10:01:46.066Z</time></trkpt><trkpt lat="40.9891418" lon="17.2407583"><ele>3.1428571428571423</ele><time>2026-04-19T10:01:53.066Z</time></trkpt><trkpt lat="40.9890814" lon="17.2408059"><ele>3.2857142857142856</ele><time>2026-04-19T10:01:58.989Z</time></trkpt><trkpt lat="40.9890221" lon="17.2408435"><ele>3.4285714285714284</ele><time>2026-04-19T10:02:05.065Z</time></trkpt><trkpt lat="40.9889619" lon="17.2408885"><ele>3.571428571428571</ele><time>2026-04-19T10:02:12.065Z</time></trkpt><trkpt lat="40.9889015" lon="17.2409218"><ele>3.714285714285714</ele><time>2026-04-19T10:02:18.064Z</time></trkpt><trkpt lat="40.9888384" lon="17.2409386"><ele>3.8571428571428568</ele><time>2026-04-19T10:02:24.065Z</time></trkpt><trkpt lat="40.9887748" lon="17.2409826"><ele>4.0</ele><time>2026-04-19T10:02:30.97Z</time></trkpt><trkpt lat="40.9887185" lon="17.2410421"><ele>4.0</ele><time>2026-04-19T10:02:38.065Z</time></trkpt><trkpt lat="40.9886652" lon="17.2410896"><ele>3.9999999999999996</ele><time>2026-04-19T10:02:46.065Z</time></trkpt><trkpt lat="40.9886149" lon="17.2411521"><ele>4.0</ele><time>2026-04-19T10:02:53.066Z</time></trkpt><trkpt lat="40.9885651" lon="17.241209"><ele>4.0</ele><time>2026-04-19T10:02:59.065Z</time></trkpt><trkpt lat="40.9885038" lon="17.2412355"><ele>3.9999999999999996</ele><time>2026-04-19T10:03:05.029Z</time></trkpt><trkpt lat="40.9884573" lon="17.241293"><ele>4.0</ele><time>2026-04-19T10:03:11.054Z</time></trkpt><trkpt lat="40.9884132" lon="17.241366"><ele>4.0</ele><time>2026-04-19T10:03:17.065Z</time></trkpt><trkpt lat="40.9883663" lon="17.2414346"><ele>3.8571428571428568</ele><time>2026-04-19T10:03:22.971Z</time></trkpt><trkpt lat="40.9883249" lon="17.2415112"><ele>3.714285714285714</ele><time>2026-04-19T10:03:30.065Z</time></trkpt><trkpt lat="40.9882838" lon="17.2415873"><ele>3.571428571428571</ele><time>2026-04-19T10:03:37.065Z</time></trkpt><trkpt lat="40.9882446" lon="17.2416536"><ele>3.4285714285714284</ele><time>2026-04-19T10:03:43.064Z</time></trkpt><trkpt lat="40.9882043" lon="17.2417186"><ele>3.2857142857142856</ele><time>2026-04-19T10:03:49.065Z</time></trkpt><trkpt lat="40.9881665" lon="17.2417914"><ele>3.1428571428571423</ele><time>2026-04-19T10:03:55.065Z</time></trkpt><trkpt lat="40.988129" lon="17.2418597"><ele>3.0</ele><time>2026-04-19T10:04:01.063Z</time></trkpt><trkpt lat="40.9880907" lon="17.2419286"><ele>2.9999999999999996</ele><time>2026-04-19T10:04:07.064Z</time></trkpt><trkpt lat="40.988048" lon="17.2419949"><ele>3.0</ele><time>2026-04-19T10:04:13.064Z</time></trkpt><trkpt lat="40.9880022" lon="17.242071"><ele>3.0</ele><time>2026-04-19T10:04:20.064Z</time></trkpt><trkpt lat="40.9879572" lon="17.2421389"><ele>3.0</ele><time>2026-04-19T10:04:26.064Z</time></trkpt><trkpt lat="40.9879236" lon="17.242218"><ele>3.0</ele><time>2026-04-19T10:04:33.064Z</time></trkpt><trkpt lat="40.9878835" lon="17.2422905"><ele>2.9999999999999996</ele><time>2026-04-19T10:04:41.064Z</time></trkpt><trkpt lat="40.9878229" lon="17.2423232"><ele>3.0</ele><time>2026-04-19T10:04:49.064Z</time></trkpt><trkpt lat="40.9877918" lon="17.2424004"><ele>2.571428571428571</ele><time>2026-04-19T10:04:57.064Z</time></trkpt><trkpt lat="40.9877768" lon="17.2424824"><ele>2.142857142857143</ele><time>2026-04-19T10:05:05.064Z</time></trkpt><trkpt lat="40.9877162" lon="17.2425128"><ele>1.7142857142857142</ele><time>2026-04-19T10:05:11.064Z</time></trkpt><trkpt lat="40.9876635" lon="17.2425717"><ele>1.2857142857142856</ele><time>2026-04-19T10:05:36.182Z</time></trkpt><trkpt lat="40.9876483" lon="17.2426593"><ele>0.8571428571428571</ele><time>2026-04-19T10:06:07.04Z</time></trkpt><trkpt lat="40.9876284" lon="17.2427407"><ele>0.42857142857142855</ele><time>2026-04-19T10:06:12.181Z</time></trkpt><trkpt lat="40.987572" lon="17.2428122"><ele>0.0</ele><time>2026-04-19T10:06:18.805Z</time></trkpt><trkpt lat="40.9875067" lon="17.2428442"><ele>0.7142857142857143</ele><time>2026-04-19T10:06:23.064Z</time></trkpt><trkpt lat="40.9874413" lon="17.2428731"><ele>1.4285714285714286</ele><time>2026-04-19T10:06:28.174Z</time></trkpt><trkpt lat="40.9873923" lon="17.2429355"><ele>2.142857142857143</ele><time>2026-04-19T10:06:34.065Z</time></trkpt><trkpt lat="40.9873554" lon="17.2430243"><ele>2.857142857142857</ele><time>2026-04-19T10:06:41.89Z</time></trkpt><trkpt lat="40.9873145" lon="17.2430968"><ele>3.5714285714285716</ele><time>2026-04-19T10:06:47.248Z</time></trkpt><trkpt lat="40.9872694" lon="17.2431622"><ele>4.285714285714286</ele><time>2026-04-19T10:06:53.175Z</time></trkpt><trkpt lat="40.987241" lon="17.2432445"><ele>5.0</ele><time>2026-04-19T10:07:01.065Z</time></trkpt><trkpt lat="40.9871939" lon="17.2433066"><ele>5.0</ele><time>2026-04-19T10:07:08.064Z</time></trkpt><trkpt lat="40.9871268" lon="17.2433473"><ele>5.0</ele><time>2026-04-19T10:07:14.064Z</time></trkpt><trkpt lat="40.9870856" lon="17.243414"><ele>5.0</ele><time>2026-04-19T10:07:22.085Z</time></trkpt><trkpt lat="40.9870421" lon="17.2434776"><ele>5.0</ele><time>2026-04-19T10:07:28.064Z</time></trkpt><trkpt lat="40.9870194" lon="17.2435743"><ele>5.0</ele><time>2026-04-19T10:07:37.084Z</time></trkpt><trkpt lat="40.9869735" lon="17.2436455"><ele>5.0</ele><time>2026-04-19T10:07:43.939Z</time></trkpt><trkpt lat="40.9869154" lon="17.243695"><ele>5.0</ele><time>2026-04-19T10:07:49.065Z</time></trkpt><trkpt lat="40.9868644" lon="17.2437573"><ele>5.0</ele><time>2026-04-19T10:07:56.064Z</time></trkpt><trkpt lat="40.9868562" lon="17.2438513"><ele>5.0</ele><time>2026-04-19T10:08:07.888Z</time></trkpt><trkpt lat="40.9868111" lon="17.2439107"><ele>5.0</ele><time>2026-04-19T10:08:13.52Z</time></trkpt><trkpt lat="40.9867667" lon="17.2439798"><ele>5.0</ele><time>2026-04-19T10:08:20.172Z</time></trkpt><trkpt lat="40.9867039" lon="17.2440199"><ele>5.0</ele><time>2026-04-19T10:08:27.065Z</time></trkpt><trkpt lat="40.9866533" lon="17.244084"><ele>5.0</ele><time>2026-04-19T10:08:33.912Z</time></trkpt><trkpt lat="40.9866276" lon="17.2441655"><ele>5.0</ele><time>2026-04-19T10:08:40.505Z</time></trkpt><trkpt lat="40.9865854" lon="17.2442347"><ele>5.571428571428571</ele><time>2026-04-19T10:08:45.178Z</time></trkpt><trkpt lat="40.9865447" lon="17.2443048"><ele>6.142857142857143</ele><time>2026-04-19T10:08:50.946Z</time></trkpt><trkpt lat="40.9864909" lon="17.2443917"><ele>6.714285714285715</ele><time>2026-04-19T10:09:10.065Z</time></trkpt><trkpt lat="40.9864417" lon="17.2444439"><ele>7.2857142857142865</ele><time>2026-04-19T10:09:15.057Z</time></trkpt><trkpt lat="40.9864243" lon="17.2445317"><ele>7.857142857142858</ele><time>2026-04-19T10:09:20.064Z</time></trkpt><trkpt lat="40.9863761" lon="17.2445974"><ele>8.428571428571429</ele><time>2026-04-19T10:09:27.065Z</time></trkpt><trkpt lat="40.9863504" lon="17.2446755"><ele>9.0</ele><time>2026-04-19T10:09:32.97Z</time></trkpt><trkpt lat="40.9862772" lon="17.2446991"><ele>9.000000000000002</ele><time>2026-04-19T10:09:42.014Z</time></trkpt><trkpt lat="40.9862085" lon="17.2446681"><ele>9.0</ele><time>2026-04-19T10:09:49.064Z</time></trkpt><trkpt lat="40.986149" lon="17.2446288"><ele>9.0</ele><time>2026-04-19T10:09:54.996Z</time></trkpt><trkpt lat="40.9860789" lon="17.2446081"><ele>9.0</ele><time>2026-04-19T10:10:02.064Z</time></trkpt><trkpt lat="40.9860171" lon="17.2445726"><ele>9.0</ele><time>2026-04-19T10:10:08.186Z</time></trkpt><trkpt lat="40.9859497" lon="17.2445315"><ele>9.000000000000002</ele><time>2026-04-19T10:10:14.039Z</time></trkpt><trkpt lat="40.9858799" lon="17.2444952"><ele>9.0</ele><time>2026-04-19T10:10:20.064Z</time></trkpt><trkpt lat="40.9858098" lon="17.2444832"><ele>9.428571428571429</ele><time>2026-04-19T10:10:26.065Z</time></trkpt><trkpt lat="40.9857485" lon="17.244447"><ele>9.857142857142858</ele><time>2026-04-19T10:10:32.228Z</time></trkpt><trkpt lat="40.9857075" lon="17.2443591"><ele>10.285714285714285</ele><time>2026-04-19T10:10:38.173Z</time></trkpt><trkpt lat="40.9856612" lon="17.2442853"><ele>10.714285714285715</ele><time>2026-04-19T10:10:45.064Z</time></trkpt><trkpt lat="40.9855853" lon="17.2442781"><ele>11.142857142857142</ele><time>2026-04-19T10:10:52.065Z</time></trkpt><trkpt lat="40.985526" lon="17.2443061"><ele>11.571428571428571</ele><time>2026-04-19T10:10:58.101Z</time></trkpt><trkpt lat="40.9854598" lon="17.2443395"><ele>12.0</ele><time>2026-04-19T10:11:04.179Z</time></trkpt><trkpt lat="40.985388" lon="17.2443816"><ele>11.999999999999998</ele><time>2026-04-19T10:11:10.065Z</time></trkpt><trkpt lat="40.9853259" lon="17.2444049"><ele>12.0</ele><time>2026-04-19T10:11:15.999Z</time></trkpt><trkpt lat="40.9852778" lon="17.2444719"><ele>12.0</ele><time>2026-04-19T10:11:22.075Z</time></trkpt><trkpt lat="40.9852355" lon="17.2445384"><ele>12.0</ele><time>2026-04-19T10:11:29.064Z</time></trkpt><trkpt lat="40.9851661" lon="17.2445667"><ele>12.0</ele><time>2026-04-19T10:11:39.162Z</time></trkpt><trkpt lat="40.9851254" lon="17.2446339"><ele>11.999999999999998</ele><time>2026-04-19T10:11:45.156Z</time></trkpt><trkpt lat="40.9851902" lon="17.2446226"><ele>12.0</ele><time>2026-04-19T10:13:50.974Z</time></trkpt><trkpt lat="40.9852531" lon="17.2445841"><ele>11.999999999999998</ele><time>2026-04-19T10:13:55.891Z</time></trkpt><trkpt lat="40.9853069" lon="17.2446397"><ele>12.0</ele><time>2026-04-19T10:14:00.063Z</time></trkpt><trkpt lat="40.9853683" lon="17.2446854"><ele>12.0</ele><time>2026-04-19T10:14:07.063Z</time></trkpt><trkpt lat="40.9853671" lon="17.2445946"><ele>12.0</ele><time>2026-04-19T10:14:48.145Z</time></trkpt><trkpt lat="40.9853117" lon="17.244546"><ele>12.0</ele><time>2026-04-19T10:14:54.064Z</time></trkpt><trkpt lat="40.9852616" lon="17.2444942"><ele>11.999999999999998</ele><time>2026-04-19T10:15:02.063Z</time></trkpt><trkpt lat="40.985269" lon="17.2444102"><ele>12.0</ele><time>2026-04-19T10:15:07.495Z</time></trkpt><trkpt lat="40.9852539" lon="17.2443242"><ele>11.999999999999998</ele><time>2026-04-19T10:15:13.965Z</time></trkpt><trkpt lat="40.9852432" lon="17.2442363"><ele>12.0</ele><time>2026-04-19T10:15:22.063Z</time></trkpt><trkpt lat="40.9852725" lon="17.2441499"><ele>12.0</ele><time>2026-04-19T10:15:29.064Z</time></trkpt><trkpt lat="40.9852856" lon="17.2440555"><ele>12.0</ele><time>2026-04-19T10:15:36.064Z</time></trkpt><trkpt lat="40.9853165" lon="17.2439755"><ele>12.0</ele><time>2026-04-19T10:15:42.904Z</time></trkpt><trkpt lat="40.9853683" lon="17.2439274"><ele>11.999999999999998</ele><time>2026-04-19T10:16:10.063Z</time></trkpt><trkpt lat="40.9853609" lon="17.2438412"><ele>12.0</ele><time>2026-04-19T10:16:16.064Z</time></trkpt><trkpt lat="40.9853297" lon="17.2439232"><ele>11.999999999999998</ele><time>2026-04-19T10:16:58.743Z</time></trkpt><trkpt lat="40.9852776" lon="17.2439718"><ele>12.0</ele><time>2026-04-19T10:17:07.063Z</time></trkpt><trkpt lat="40.9852665" lon="17.2440644"><ele>12.0</ele><time>2026-04-19T10:17:19.99Z</time></trkpt><trkpt lat="40.9852717" lon="17.2441637"><ele>12.0</ele><time>2026-04-19T10:17:26.063Z</time></trkpt><trkpt lat="40.9852505" lon="17.2442507"><ele>12.0</ele><time>2026-04-19T10:17:33.064Z</time></trkpt><trkpt lat="40.9852228" lon="17.2443289"><ele>11.999999999999998</ele><time>2026-04-19T10:17:39.062Z</time></trkpt><trkpt lat="40.9852112" lon="17.2444186"><ele>12.0</ele><time>2026-04-19T10:17:45.025Z</time></trkpt><trkpt lat="40.985228" lon="17.2445083"><ele>11.999999999999998</ele><time>2026-04-19T10:17:51.059Z</time></trkpt><trkpt lat="40.9852257" lon="17.2445973"><ele>12.0</ele><time>2026-04-19T10:18:10.063Z</time></trkpt><trkpt lat="40.9851671" lon="17.244643"><ele>12.0</ele><time>2026-04-19T10:18:16.063Z</time></trkpt><trkpt lat="40.9851082" lon="17.2446737"><ele>12.0</ele><time>2026-04-19T10:19:07.063Z</time></trkpt><trkpt lat="40.9851078" lon="17.2447634"><ele>12.0</ele><time>2026-04-19T10:19:21.165Z</time></trkpt><trkpt lat="40.9850536" lon="17.2448312"><ele>11.999999999999998</ele><time>2026-04-19T10:19:36.142Z</time></trkpt><trkpt lat="40.9850005" lon="17.244905"><ele>12.0</ele><time>2026-04-19T10:19:43.167Z</time></trkpt><trkpt lat="40.9849694" lon="17.2449879"><ele>11.857142857142856</ele><time>2026-04-19T10:19:50.167Z</time></trkpt><trkpt lat="40.9849587" lon="17.2450725"><ele>11.714285714285714</ele><time>2026-04-19T10:19:57.976Z</time></trkpt><trkpt lat="40.9849745" lon="17.2451571"><ele>11.571428571428571</ele><time>2026-04-19T10:20:04.977Z</time></trkpt><trkpt lat="40.9850211" lon="17.2452249"><ele>11.428571428571427</ele><time>2026-04-19T10:20:13.159Z</time></trkpt><trkpt lat="40.9850889" lon="17.2452012"><ele>11.285714285714285</ele><time>2026-04-19T10:20:21.156Z</time></trkpt><trkpt lat="40.9851542" lon="17.245204"><ele>11.142857142857142</ele><time>2026-04-19T10:20:30.438Z</time></trkpt><trkpt lat="40.9851865" lon="17.2452825"><ele>11.0</ele><time>2026-04-19T10:20:37.157Z</time></trkpt><trkpt lat="40.9852162" lon="17.2453756"><ele>11.0</ele><time>2026-04-19T10:20:55.062Z</time></trkpt><trkpt lat="40.9852082" lon="17.2454661"><ele>11.0</ele><time>2026-04-19T10:20:56.12Z</time></trkpt><trkpt lat="40.9852201" lon="17.2455574"><ele>11.0</ele><time>2026-04-19T10:21:00.055Z</time></trkpt><trkpt lat="40.9852574" lon="17.2456276"><ele>11.0</ele><time>2026-04-19T10:21:08.063Z</time></trkpt><trkpt lat="40.9852551" lon="17.2457185"><ele>11.0</ele><time>2026-04-19T10:21:15.9Z</time></trkpt><trkpt lat="40.9852039" lon="17.2457814"><ele>11.0</ele><time>2026-04-19T10:21:22.998Z</time></trkpt><trkpt lat="40.9851982" lon="17.2458757"><ele>11.0</ele><time>2026-04-19T10:21:43.86Z</time></trkpt><trkpt lat="40.9852621" lon="17.2459136"><ele>10.571428571428571</ele><time>2026-04-19T10:21:50.975Z</time></trkpt><trkpt lat="40.9853294" lon="17.2459249"><ele>10.142857142857142</ele><time>2026-04-19T10:21:56.166Z</time></trkpt><trkpt lat="40.9853777" lon="17.2459836"><ele>9.714285714285714</ele><time>2026-04-19T10:22:06.676Z</time></trkpt><trkpt lat="40.9853314" lon="17.246049"><ele>9.285714285714285</ele><time>2026-04-19T10:22:14.17Z</time></trkpt><trkpt lat="40.9852865" lon="17.2461218"><ele>8.857142857142856</ele><time>2026-04-19T10:22:21.164Z</time></trkpt><trkpt lat="40.9852233" lon="17.2461325"><ele>8.428571428571429</ele><time>2026-04-19T10:22:29.134Z</time></trkpt><trkpt lat="40.9851487" lon="17.2461351"><ele>8.0</ele><time>2026-04-19T10:22:40.166Z</time></trkpt><trkpt lat="40.9851639" lon="17.2462225"><ele>8.0</ele><time>2026-04-19T10:22:47.064Z</time></trkpt><trkpt lat="40.9851163" lon="17.2462897"><ele>7.999999999999999</ele><time>2026-04-19T10:23:18.333Z</time></trkpt><trkpt lat="40.9850749" lon="17.2463566"><ele>8.0</ele><time>2026-04-19T10:23:24.015Z</time></trkpt><trkpt lat="40.985049" lon="17.2464396"><ele>8.0</ele><time>2026-04-19T10:23:30.062Z</time></trkpt><trkpt lat="40.9850635" lon="17.246528"><ele>7.999999999999999</ele><time>2026-04-19T10:23:42.062Z</time></trkpt><trkpt lat="40.9850891" lon="17.2466044"><ele>8.0</ele><time>2026-04-19T10:23:50.063Z</time></trkpt><trkpt lat="40.9851589" lon="17.2465754"><ele>8.0</ele><time>2026-04-19T10:24:13.063Z</time></trkpt><trkpt lat="40.9852193" lon="17.2465451"><ele>8.142857142857142</ele><time>2026-04-19T10:24:25.063Z</time></trkpt><trkpt lat="40.9852822" lon="17.2465712"><ele>8.285714285714285</ele><time>2026-04-19T10:24:32.062Z</time></trkpt><trkpt lat="40.985246" lon="17.2466425"><ele>8.428571428571429</ele><time>2026-04-19T10:25:06.062Z</time></trkpt><trkpt lat="40.9851823" lon="17.2466188"><ele>8.571428571428571</ele><time>2026-04-19T10:25:12.061Z</time></trkpt><trkpt lat="40.9851127" lon="17.2466243"><ele>8.714285714285715</ele><time>2026-04-19T10:25:20.061Z</time></trkpt><trkpt lat="40.9850811" lon="17.2467063"><ele>8.857142857142858</ele><time>2026-04-19T10:25:26.062Z</time></trkpt><trkpt lat="40.9850295" lon="17.2467635"><ele>9.0</ele><time>2026-04-19T10:25:32.159Z</time></trkpt><trkpt lat="40.9849847" lon="17.2468282"><ele>9.000000000000002</ele><time>2026-04-19T10:25:39.063Z</time></trkpt><trkpt lat="40.9849228" lon="17.2468836"><ele>9.0</ele><time>2026-04-19T10:25:45.811Z</time></trkpt><trkpt lat="40.9848723" lon="17.2469542"><ele>9.0</ele><time>2026-04-19T10:25:50.955Z</time></trkpt><trkpt lat="40.9848347" lon="17.2470213"><ele>9.0</ele><time>2026-04-19T10:25:55.649Z</time></trkpt><trkpt lat="40.9848069" lon="17.2470993"><ele>9.0</ele><time>2026-04-19T10:26:02.267Z</time></trkpt><trkpt lat="40.9847693" lon="17.2471746"><ele>9.000000000000002</ele><time>2026-04-19T10:26:07.244Z</time></trkpt><trkpt lat="40.9847302" lon="17.2472455"><ele>9.0</ele><time>2026-04-19T10:26:14.062Z</time></trkpt><trkpt lat="40.9846684" lon="17.2472891"><ele>8.571428571428573</ele><time>2026-04-19T10:26:20.706Z</time></trkpt><trkpt lat="40.9846295" lon="17.2473731"><ele>8.142857142857142</ele><time>2026-04-19T10:26:28.531Z</time></trkpt><trkpt lat="40.9846268" lon="17.2474596"><ele>7.714285714285714</ele><time>2026-04-19T10:26:35.428Z</time></trkpt><trkpt lat="40.9846273" lon="17.2475434"><ele>7.2857142857142865</ele><time>2026-04-19T10:26:42.192Z</time></trkpt><trkpt lat="40.9846047" lon="17.247639"><ele>6.857142857142858</ele><time>2026-04-19T10:26:50.199Z</time></trkpt><trkpt lat="40.9845587" lon="17.247709"><ele>6.428571428571428</ele><time>2026-04-19T10:26:56.134Z</time></trkpt><trkpt lat="40.9845011" lon="17.2477531"><ele>6.0</ele><time>2026-04-19T10:27:04.161Z</time></trkpt><trkpt lat="40.984507" lon="17.2478364"><ele>6.0</ele><time>2026-04-19T10:27:16.062Z</time></trkpt><trkpt lat="40.9845636" lon="17.2478822"><ele>6.0</ele><time>2026-04-19T10:27:25.504Z</time></trkpt><trkpt lat="40.9846676" lon="17.2478414"><ele>6.0</ele><time>2026-04-19T10:27:39.165Z</time></trkpt><trkpt lat="40.9847343" lon="17.2478528"><ele>6.0</ele><time>2026-04-19T10:27:44.062Z</time></trkpt><trkpt lat="40.9847795" lon="17.2479256"><ele>6.0</ele><time>2026-04-19T10:27:52.062Z</time></trkpt><trkpt lat="40.9848089" lon="17.2480032"><ele>6.0</ele><time>2026-04-19T10:27:58.313Z</time></trkpt><trkpt lat="40.9848649" lon="17.2480608"><ele>5.7142857142857135</ele><time>2026-04-19T10:28:05.428Z</time></trkpt><trkpt lat="40.9849023" lon="17.2481353"><ele>5.428571428571429</ele><time>2026-04-19T10:28:12.168Z</time></trkpt><trkpt lat="40.9849006" lon="17.2482273"><ele>5.142857142857142</ele><time>2026-04-19T10:28:19.256Z</time></trkpt><trkpt lat="40.984906" lon="17.2483248"><ele>4.857142857142857</ele><time>2026-04-19T10:28:27.063Z</time></trkpt><trkpt lat="40.9848876" lon="17.2484251"><ele>4.571428571428571</ele><time>2026-04-19T10:28:33.071Z</time></trkpt><trkpt lat="40.9848246" lon="17.2484226"><ele>4.285714285714286</ele><time>2026-04-19T10:28:46.826Z</time></trkpt><trkpt lat="40.9847706" lon="17.2483786"><ele>4.0</ele><time>2026-04-19T10:28:51.161Z</time></trkpt><trkpt lat="40.9846927" lon="17.2483953"><ele>4.0</ele><time>2026-04-19T10:28:57.063Z</time></trkpt><trkpt lat="40.9846326" lon="17.2484417"><ele>3.9999999999999996</ele><time>2026-04-19T10:29:04.062Z</time></trkpt><trkpt lat="40.9845897" lon="17.2483796"><ele>4.0</ele><time>2026-04-19T10:29:14.178Z</time></trkpt><trkpt lat="40.9845887" lon="17.2484773"><ele>4.0</ele><time>2026-04-19T10:29:49.063Z</time></trkpt><trkpt lat="40.9845837" lon="17.2485699"><ele>3.9999999999999996</ele><time>2026-04-19T10:30:04.062Z</time></trkpt><trkpt lat="40.9845618" lon="17.2486523"><ele>4.0</ele><time>2026-04-19T10:30:09.17Z</time></trkpt><trkpt lat="40.9845179" lon="17.2487135"><ele>4.0</ele><time>2026-04-19T10:30:16.174Z</time></trkpt><trkpt lat="40.9844742" lon="17.2487791"><ele>4.0</ele><time>2026-04-19T10:30:22.062Z</time></trkpt><trkpt lat="40.9844388" lon="17.2488507"><ele>3.9999999999999996</ele><time>2026-04-19T10:30:28.062Z</time></trkpt><trkpt lat="40.9844476" lon="17.2489378"><ele>4.0</ele><time>2026-04-19T10:30:53.063Z</time></trkpt><trkpt lat="40.9844021" lon="17.2490019"><ele>4.0</ele><time>2026-04-19T10:30:59.062Z</time></trkpt><trkpt lat="40.9843566" lon="17.2490665"><ele>3.9999999999999996</ele><time>2026-04-19T10:31:05.061Z</time></trkpt><trkpt lat="40.9843226" lon="17.2491453"><ele>4.0</ele><time>2026-04-19T10:31:13.028Z</time></trkpt><trkpt lat="40.9843085" lon="17.2492373"><ele>4.0</ele><time>2026-04-19T10:31:21.063Z</time></trkpt><trkpt lat="40.9843092" lon="17.2493253"><ele>4.0</ele><time>2026-04-19T10:31:28.062Z</time></trkpt><trkpt lat="40.9842999" lon="17.2494177"><ele>3.9999999999999996</ele><time>2026-04-19T10:31:36.062Z</time></trkpt><trkpt lat="40.9842913" lon="17.2495062"><ele>4.0</ele><time>2026-04-19T10:31:44.062Z</time></trkpt><trkpt lat="40.9842901" lon="17.2495999"><ele>4.0</ele><time>2026-04-19T10:32:00.062Z</time></trkpt><trkpt lat="40.9842519" lon="17.2496706"><ele>3.9999999999999996</ele><time>2026-04-19T10:32:05.063Z</time></trkpt><trkpt lat="40.9842034" lon="17.2497514"><ele>4.0</ele><time>2026-04-19T10:32:11.189Z</time></trkpt><trkpt lat="40.9841361" lon="17.2497754"><ele>4.0</ele><time>2026-04-19T10:32:19.072Z</time></trkpt><trkpt lat="40.9840679" lon="17.2498541"><ele>4.571428571428571</ele><time>2026-04-19T10:32:44.183Z</time></trkpt><trkpt lat="40.9840173" lon="17.2499098"><ele>5.142857142857142</ele><time>2026-04-19T10:32:47.058Z</time></trkpt><trkpt lat="40.9839658" lon="17.2499685"><ele>5.7142857142857135</ele><time>2026-04-19T10:32:52.189Z</time></trkpt><trkpt lat="40.9839077" lon="17.2500204"><ele>6.285714285714286</ele><time>2026-04-19T10:32:59.063Z</time></trkpt><trkpt lat="40.9838464" lon="17.2500588"><ele>6.857142857142856</ele><time>2026-04-19T10:33:06.062Z</time></trkpt><trkpt lat="40.9837909" lon="17.2501128"><ele>7.428571428571428</ele><time>2026-04-19T10:33:13.062Z</time></trkpt><trkpt lat="40.9837657" lon="17.2501975"><ele>8.0</ele><time>2026-04-19T10:33:18.17Z</time></trkpt><trkpt lat="40.9837372" lon="17.2502746"><ele>8.0</ele><time>2026-04-19T10:33:22.778Z</time></trkpt><trkpt lat="40.9837014" lon="17.2503604"><ele>7.999999999999999</ele><time>2026-04-19T10:33:30.797Z</time></trkpt><trkpt lat="40.9836435" lon="17.2504152"><ele>8.0</ele><time>2026-04-19T10:33:42.158Z</time></trkpt><trkpt lat="40.9836003" lon="17.25049"><ele>8.0</ele><time>2026-04-19T10:33:50.166Z</time></trkpt><trkpt lat="40.9835693" lon="17.25057"><ele>7.999999999999999</ele><time>2026-04-19T10:33:55.723Z</time></trkpt><trkpt lat="40.9835487" lon="17.2506536"><ele>8.0</ele><time>2026-04-19T10:34:01.421Z</time></trkpt><trkpt lat="40.9835095" lon="17.2507212"><ele>8.0</ele><time>2026-04-19T10:34:07.176Z</time></trkpt><trkpt lat="40.9834764" lon="17.2507932"><ele>8.0</ele><time>2026-04-19T10:34:18.063Z</time></trkpt><trkpt lat="40.9834408" lon="17.2508638"><ele>7.999999999999999</ele><time>2026-04-19T10:34:23.175Z</time></trkpt><trkpt lat="40.9834148" lon="17.2509502"><ele>8.0</ele><time>2026-04-19T10:34:31.158Z</time></trkpt><trkpt lat="40.983373" lon="17.2510258"><ele>8.0</ele><time>2026-04-19T10:34:38.021Z</time></trkpt><trkpt lat="40.9833348" lon="17.2510948"><ele>7.999999999999999</ele><time>2026-04-19T10:34:43.062Z</time></trkpt><trkpt lat="40.9833054" lon="17.2511822"><ele>8.0</ele><time>2026-04-19T10:34:49.556Z</time></trkpt><trkpt lat="40.9832563" lon="17.2512495"><ele>8.0</ele><time>2026-04-19T10:34:56.168Z</time></trkpt><trkpt lat="40.9831926" lon="17.2512706"><ele>8.0</ele><time>2026-04-19T10:35:04.259Z</time></trkpt><trkpt lat="40.9831173" lon="17.251255"><ele>7.999999999999999</ele><time>2026-04-19T10:35:11.164Z</time></trkpt><trkpt lat="40.9830439" lon="17.2512018"><ele>8.0</ele><time>2026-04-19T10:35:17.248Z</time></trkpt><trkpt lat="40.982976" lon="17.2511989"><ele>8.0</ele><time>2026-04-19T10:35:23.169Z</time></trkpt><trkpt lat="40.9830316" lon="17.2512576"><ele>7.999999999999999</ele><time>2026-04-19T10:37:09.061Z</time></trkpt><trkpt lat="40.9830484" lon="17.2513465"><ele>8.0</ele><time>2026-04-19T10:37:20.061Z</time></trkpt><trkpt lat="40.9830132" lon="17.2514231"><ele>8.0</ele><time>2026-04-19T10:37:27.062Z</time></trkpt><trkpt lat="40.9829564" lon="17.2514717"><ele>3.0</ele><time>2026-04-19T10:37:34.061Z</time></trkpt><trkpt lat="40.9829128" lon="17.2515324"><ele>3.0</ele><time>2026-04-19T10:37:44.061Z</time></trkpt><trkpt lat="40.9829698" lon="17.2516204"><ele>3.0</ele><time>2026-04-19T10:38:31.061Z</time></trkpt><trkpt lat="40.983039" lon="17.2516257"><ele>3.0</ele><time>2026-04-19T10:38:35.061Z</time></trkpt><trkpt lat="40.9829963" lon="17.2515331"><ele>3.0</ele><time>2026-04-19T10:42:23.061Z</time></trkpt></trkseg></trk></gpx>